Observation data for Goodnight on 03/23/2019      Previous  Date       Current Mesonet Observations  Soil Data  Daily Summary Page  Observations in Plain Language
KGO1 230500Z 20010KT 07/04 A2996 RMK A01 T00710036  RH  078%=      5-min Rain = 0.01
KGO1 230501Z 21011KT 07/04 A2996 RMK A01 T00710036  RH  078%=      5-min Rain = 0
KGO1 230502Z 22011KT 07/04 A2996 RMK A01 T00700036  RH  079%=      5-min Rain = 0
KGO1 230503Z 22012KT 07/04 A2996 RMK A01 T00730038  RH  079%=      5-min Rain = 0
KGO1 230504Z 22013KT 08/04 A2996 RMK A01 T00770039  RH  077%=      5-min Rain = 0.01
KGO1 230505Z 22013KT 08/04 A2996 RMK A01 T00800040  RH  076%=      5-min Rain = 0
KGO1 230506Z 23014KT 08/04 A2996 RMK A01 T00820040  RH  075%=      5-min Rain = 0
KGO1 230507Z 24014KT 08/04 A2996 RMK A01 T00830040  RH  074%=      5-min Rain = 0.01
KGO1 230508Z 24014KT 08/04 A2996 RMK A01 T00830040  RH  075%=      5-min Rain = 0
KGO1 230509Z 23014KT 08/04 A2996 RMK A01 T00840042  RH  075%=      5-min Rain = 0
KGO1 230510Z 23014KT 09/05 A2996 RMK A01 T00860045  RH  075%=      5-min Rain = 0
KGO1 230511Z 23016KT 09/05 A2996 RMK A01 T00860045  RH  076%=      5-min Rain = 0
KGO1 230512Z 24017KT 09/05 A2996 RMK A01 T00870047  RH  076%=      5-min Rain = 0.01
KGO1 230513Z 24017KT 09/05 A2996 RMK A01 T00890050  RH  076%=      5-min Rain = 0
KGO1 230514Z 24016KT 09/05 A2997 RMK A01 T00910053  RH  077%=      5-min Rain = 0
KGO1 230515Z 25015KT 09/05 A2997 RMK A01 T00900054  RH  078%=      5-min Rain = 0.01
KGO1 230516Z 25015KT 09/05 A2997 RMK A01 T00880054  RH  079%=      5-min Rain = 0
KGO1 230517Z 26014KT 09/05 A2997 RMK A01 T00860054  RH  080%=      5-min Rain = 0
KGO1 230518Z 27014KT 09/05 A2997 RMK A01 T00850054  RH  081%=      5-min Rain = 0
KGO1 230519Z 27012KT 08/06 A2996 RMK A01 T00820057  RH  084%=      5-min Rain = 0
KGO1 230520Z 28010KT 08/06 A2996 RMK A01 T00840060  RH  085%=      5-min Rain = 0
KGO1 230521Z 28012KT 08/06 A2996 RMK A01 T00840060  RH  085%=      5-min Rain = 0
KGO1 230522Z 26015KT 09/06 A2997 RMK A01 T00850062  RH  086%=      5-min Rain = 0
KGO1 230523Z 25017KT 09/07 A2997 RMK A01 T00890067  RH  086%=      5-min Rain = 0
KGO1 230524Z 24014KT 10/07 A2997 RMK A01 T00950068  RH  083%=      5-min Rain = 0
KGO1 230525Z 24011KT 10/07 A2997 RMK A01 T00950065  RH  082%=      5-min Rain = 0
KGO1 230526Z 24009KT 09/06 A2996 RMK A01 T00940063  RH  081%=      5-min Rain = 0
KGO1 230527Z 23010KT 09/06 A2996 RMK A01 T00930062  RH  081%=      5-min Rain = 0
KGO1 230528Z 23011KT 09/06 A2996 RMK A01 T00920062  RH  081%=      5-min Rain = 0
KGO1 230529Z 24010KT 09/06 A2996 RMK A01 T00910062  RH  082%=      5-min Rain = 0
KGO1 230530Z 25009KT 09/06 A2996 RMK A01 T00890063  RH  084%=      5-min Rain = 0
KGO1 230531Z 25011KT 09/06 A2996 RMK A01 T00890064  RH  084%=      5-min Rain = 0
KGO1 230532Z 25015KT 09/07 A2996 RMK A01 T00890067  RH  086%=      5-min Rain = 0
KGO1 230533Z 25012KT 09/07 A2996 RMK A01 T00910069  RH  087%=      5-min Rain = 0
KGO1 230534Z 25012KT 09/07 A2996 RMK A01 T00920070  RH  086%=      5-min Rain = 0
KGO1 230535Z 25013KT 09/07 A2996 RMK A01 T00920071  RH  087%=      5-min Rain = 0
KGO1 230536Z 25015KT 09/07 A2996 RMK A01 T00920072  RH  087%=      5-min Rain = 0
KGO1 230537Z 24014KT 09/07 A2997 RMK A01 T00930072  RH  087%=      5-min Rain = 0
KGO1 230538Z 22013KT 09/07 A2997 RMK A01 T00920073  RH  088%=      5-min Rain = 0
KGO1 230539Z 22011KT 09/08 A2996 RMK A01 T00940077  RH  089%=      5-min Rain = 0
KGO1 230540Z 21009KT 10/08 A2996 RMK A01 T00990080  RH  088%=      5-min Rain = 0
KGO1 230541Z 21010KT 10/08 A2996 RMK A01 T01000080  RH  087%=      5-min Rain = 0
KGO1 230542Z 21010KT 10/08 A2996 RMK A01 T01010081  RH  087%=      5-min Rain = 0
KGO1 230543Z 22010KT 10/08 A2996 RMK A01 T01020081  RH  087%=      5-min Rain = 0.01
KGO1 230544Z 21010KT 10/08 A2996 RMK A01 T01030081  RH  087%=      5-min Rain = 0
KGO1 230545Z 21010KT 10/08 A2996 RMK A01 T01020081  RH  087%=      5-min Rain = 0
KGO1 230546Z 22011KT 10/08 A2996 RMK A01 T01020081  RH  087%=      5-min Rain = 0
KGO1 230547Z 22011KT 10/08 A2996 RMK A01 T01020082  RH  087%=      5-min Rain = 0
KGO1 230548Z 22011KT 10/08 A2996 RMK A01 T01030082  RH  087%=      5-min Rain = 0
KGO1 230549Z 23011KT 10/08 A2996 RMK A01 T01030082  RH  087%=      5-min Rain = 0
KGO1 230550Z 23011KT 10/08 A2996 RMK A01 T01030083  RH  087%=      5-min Rain = 0
KGO1 230551Z 23011KT 10/08 A2996 RMK A01 T01030084  RH  088%=      5-min Rain = 0
KGO1 230552Z 23012KT 10/08 A2996 RMK A01 T01040084  RH  087%=      5-min Rain = 0
KGO1 230553Z 22012KT 11/09 A2996 RMK A01 T01060085  RH  087%=      5-min Rain = 0
KGO1 230554Z 22012KT 11/09 A2996 RMK A01 T01070086  RH  087%=      5-min Rain = 0
KGO1 230555Z 21012KT 11/09 A2996 RMK A01 T01090086  RH  086%=      5-min Rain = 0
KGO1 230556Z 21012KT 11/09 A2996 RMK A01 T01090086  RH  086%=      5-min Rain = 0
KGO1 230557Z 21011KT 11/09 A2996 RMK A01 T01100086  RH  085%=      5-min Rain = 0
KGO1 230558Z 21011KT 11/09 A2996 RMK A01 T01100086  RH  085%=      5-min Rain = 0
KGO1 230559Z 21011KT 11/09 A2996 RMK A01 T01100085  RH  085%=      5-min Rain = 0
KGO1 230600Z 21011KT 11/09 A2997 RMK A01 T01090085  RH  085%=      5-min Rain = 0
KGO1 230601Z 21011KT 11/09 A2997 RMK A01 T01090085  RH  085%=      5-min Rain = 0
KGO1 230602Z 21011KT 11/09 A2997 RMK A01 T01090085  RH  085%=      5-min Rain = 0
KGO1 230603Z 21010KT 11/09 A2997 RMK A01 T01080085  RH  086%=      5-min Rain = 0
KGO1 230604Z 21010KT 11/09 A2997 RMK A01 T01070085  RH  086%=      5-min Rain = 0
KGO1 230605Z 21010KT 11/09 A2996 RMK A01 T01070085  RH  086%=      5-min Rain = 0
KGO1 230606Z 21009KT 11/08 A2996 RMK A01 T01060084  RH  087%=      5-min Rain = 0
KGO1 230607Z 21009KT 11/08 A2996 RMK A01 T01050084  RH  087%=      5-min Rain = 0
KGO1 230608Z 21008KT 10/08 A2996 RMK A01 T01040084  RH  087%=      5-min Rain = 0
KGO1 230609Z 21008KT 10/09 A2996 RMK A01 T01040085  RH  088%=      5-min Rain = 0
KGO1 230610Z 21008KT 10/08 A2996 RMK A01 T01030084  RH  088%=      5-min Rain = 0
KGO1 230611Z 21008KT 10/08 A2996 RMK A01 T01030084  RH  088%=      5-min Rain = 0
KGO1 230612Z 21009KT 10/08 A2996 RMK A01 T01020084  RH  089%=      5-min Rain = 0
KGO1 230613Z 21009KT 10/08 A2996 RMK A01 T01020084  RH  089%=      5-min Rain = 0
KGO1 230614Z 21008KT 10/09 A2996 RMK A01 T01020085  RH  089%=      5-min Rain = 0
KGO1 230615Z 21008KT 10/09 A2996 RMK A01 T01020085  RH  089%=      5-min Rain = 0
KGO1 230616Z 21008KT 10/09 A2996 RMK A01 T01020085  RH  089%=      5-min Rain = 0
KGO1 230617Z 21008KT 10/09 A2996 RMK A01 T01020085  RH  089%=      5-min Rain = 0
KGO1 230618Z 21007KT 10/09 A2996 RMK A01 T01020085  RH  089%=      5-min Rain = 0
KGO1 230619Z 21007KT 10/09 A2996 RMK A01 T01020085  RH  089%=      5-min Rain = 0
KGO1 230620Z 21008KT 10/09 A2996 RMK A01 T01020085  RH  089%=      5-min Rain = 0
KGO1 230621Z 21007KT 10/09 A2996 RMK A01 T01010085  RH  090%=      5-min Rain = 0
KGO1 230622Z 21008KT 10/09 A2996 RMK A01 T01010085  RH  090%=      5-min Rain = 0
KGO1 230623Z 20008KT 10/09 A2996 RMK A01 T01000085  RH  090%=      5-min Rain = 0
KGO1 230624Z 20007KT 10/08 A2996 RMK A01 T01000084  RH  090%=      5-min Rain = 0
KGO1 230625Z 20007KT 10/08 A2996 RMK A01 T00990084  RH  090%=      5-min Rain = 0
KGO1 230626Z 20008KT 10/08 A2996 RMK A01 T00990084  RH  090%=      5-min Rain = 0
KGO1 230627Z 20008KT 10/08 A2996 RMK A01 T00990084  RH  091%=      5-min Rain = 0
KGO1 230628Z 20008KT 10/09 A2997 RMK A01 T00990085  RH  091%=      5-min Rain = 0
KGO1 230629Z 20007KT 10/09 A2996 RMK A01 T00990085  RH  091%=      5-min Rain = 0
KGO1 230630Z 20007KT 10/09 A2996 RMK A01 T01000086  RH  091%=      5-min Rain = 0
KGO1 230631Z 19006KT 10/09 A2996 RMK A01 T01000086  RH  091%=      5-min Rain = 0
KGO1 230632Z 19006KT 10/09 A2996 RMK A01 T01000086  RH  091%=      5-min Rain = 0
KGO1 230633Z 19006KT 10/09 A2996 RMK A01 T01000086  RH  091%=      5-min Rain = 0
KGO1 230634Z 19007KT 10/09 A2996 RMK A01 T00990086  RH  091%=      5-min Rain = 0.01
KGO1 230635Z 19007KT 10/09 A2996 RMK A01 T00990085  RH  091%=      5-min Rain = 0
KGO1 230636Z 19007KT 10/08 A2996 RMK A01 T00970084  RH  091%=      5-min Rain = 0
KGO1 230637Z 19007KT 10/08 A2996 RMK A01 T00960084  RH  092%=      5-min Rain = 0
KGO1 230638Z 20007KT 10/08 A2996 RMK A01 T00960084  RH  093%=      5-min Rain = 0
KGO1 230639Z 20007KT 10/09 A2996 RMK A01 T00960085  RH  093%=      5-min Rain = 0
KGO1 230640Z 20007KT 10/09 A2996 RMK A01 T00970086  RH  093%=      5-min Rain = 0
KGO1 230641Z 20007KT 10/09 A2996 RMK A01 T00980087  RH  093%=      5-min Rain = 0
KGO1 230642Z 21006KT 10/09 A2996 RMK A01 T00980087  RH  093%=      5-min Rain = 0
KGO1 230643Z 21005KT 10/09 A2995 RMK A01 T00980087  RH  093%=      5-min Rain = 0
KGO1 230644Z 21006KT 10/09 A2995 RMK A01 T00980087  RH  093%=      5-min Rain = 0
KGO1 230645Z 21006KT 10/09 A2996 RMK A01 T00990088  RH  093%=      5-min Rain = 0
KGO1 230646Z 22007KT 10/09 A2996 RMK A01 T00990089  RH  093%=      5-min Rain = 0
KGO1 230647Z 21007KT 10/09 A2996 RMK A01 T01000089  RH  093%=      5-min Rain = 0
KGO1 230648Z 20007KT 10/09 A2995 RMK A01 T01010089  RH  092%=      5-min Rain = 0
KGO1 230649Z 20006KT 10/09 A2995 RMK A01 T01010089  RH  092%=      5-min Rain = 0
KGO1 230650Z 20006KT 10/09 A2995 RMK A01 T01010089  RH  092%=      5-min Rain = 0
KGO1 230651Z 20006KT 10/09 A2995 RMK A01 T01010089  RH  092%=      5-min Rain = 0
KGO1 230652Z 19006KT 10/09 A2995 RMK A01 T01010089  RH  092%=      5-min Rain = 0
KGO1 230653Z 19007KT 10/09 A2995 RMK A01 T01010089  RH  092%=      5-min Rain = 0
KGO1 230654Z 19007KT 10/09 A2995 RMK A01 T01010089  RH  092%=      5-min Rain = 0
KGO1 230655Z 20007KT 10/09 A2995 RMK A01 T01010088  RH  092%=      5-min Rain = 0
KGO1 230656Z 21007KT 10/09 A2995 RMK A01 T01010088  RH  091%=      5-min Rain = 0
KGO1 230657Z 20006KT 10/09 A2995 RMK A01 T01010088  RH  092%=      5-min Rain = 0
KGO1 230658Z 20006KT 10/09 A2995 RMK A01 T01010088  RH  092%=      5-min Rain = 0
KGO1 230659Z 19005KT 10/09 A2995 RMK A01 T01000088  RH  092%=      5-min Rain = 0
KGO1 230700Z 19005KT 10/09 A2995 RMK A01 T01000088  RH  092%=      5-min Rain = 0.01
KGO1 230701Z 20005KT 10/09 A2995 RMK A01 T01000088  RH  092%=      5-min Rain = 0
KGO1 230702Z 22006KT 10/09 A2995 RMK A01 T00990088  RH  093%=      5-min Rain = 0
KGO1 230703Z 21007KT 10/09 A2995 RMK A01 T00980087  RH  093%=      5-min Rain = 0
KGO1 230704Z 20008KT 10/09 A2995 RMK A01 T00980088  RH  093%=      5-min Rain = 0
KGO1 230705Z 19008KT 10/09 A2994 RMK A01 T00980088  RH  093%=      5-min Rain = 0
KGO1 230706Z 19008KT 10/09 A2994 RMK A01 T00990089  RH  093%=      5-min Rain = 0
KGO1 230707Z 19008KT 10/09 A2994 RMK A01 T01020090  RH  092%=      5-min Rain = 0
KGO1 230708Z 19008KT 10/09 A2994 RMK A01 T01030089  RH  091%=      5-min Rain = 0
KGO1 230709Z 19007KT 10/09 A2994 RMK A01 T01030089  RH  091%=      5-min Rain = 0
KGO1 230710Z 19007KT 10/09 A2994 RMK A01 T01030089  RH  091%=      5-min Rain = 0
KGO1 230711Z 20007KT 10/09 A2994 RMK A01 T01040089  RH  090%=      5-min Rain = 0
KGO1 230712Z 21008KT 10/09 A2995 RMK A01 T01030088  RH  091%=      5-min Rain = 0
KGO1 230713Z 21008KT 10/09 A2995 RMK A01 T01030089  RH  091%=      5-min Rain = 0
KGO1 230714Z 20008KT 10/09 A2995 RMK A01 T01030090  RH  091%=      5-min Rain = 0
KGO1 230715Z 20008KT 10/09 A2994 RMK A01 T01030090  RH  091%=      5-min Rain = 0
KGO1 230716Z 20008KT 10/09 A2995 RMK A01 T01040090  RH  091%=      5-min Rain = 0
KGO1 230717Z 19009KT 10/09 A2995 RMK A01 T01040090  RH  091%=      5-min Rain = 0
KGO1 230718Z 19009KT 11/09 A2995 RMK A01 T01050090  RH  091%=      5-min Rain = 0
KGO1 230719Z 19008KT 10/09 A2995 RMK A01 T01040090  RH  091%=      5-min Rain = 0
KGO1 230720Z 18009KT 10/09 A2995 RMK A01 T01040090  RH  091%=      5-min Rain = 0
KGO1 230721Z 17009KT 10/09 A2995 RMK A01 T01040089  RH  091%=      5-min Rain = 0
KGO1 230722Z 18009KT 10/09 A2995 RMK A01 T01030088  RH  091%=      5-min Rain = 0
KGO1 230723Z 18009KT 10/09 A2995 RMK A01 T01020087  RH  091%=      5-min Rain = 0
KGO1 230724Z 18009KT 10/09 A2995 RMK A01 T01010087  RH  091%=      5-min Rain = 0
KGO1 230725Z 17009KT 10/09 A2995 RMK A01 T01010087  RH  091%=      5-min Rain = 0
KGO1 230726Z 17009KT 10/09 A2995 RMK A01 T01000087  RH  091%=      5-min Rain = 0
KGO1 230727Z 17009KT 10/09 A2995 RMK A01 T00990086  RH  092%=      5-min Rain = 0
KGO1 230728Z 17008KT 10/09 A2995 RMK A01 T00990087  RH  092%=      5-min Rain = 0
KGO1 230729Z 18007KT 10/09 A2995 RMK A01 T00990087  RH  093%=      5-min Rain = 0
KGO1 230730Z 19008KT 10/09 A2996 RMK A01 T00990088  RH  093%=      5-min Rain = 0
KGO1 230731Z 19007KT 10/09 A2996 RMK A01 T00990088  RH  093%=      5-min Rain = 0
KGO1 230732Z 19007KT 10/09 A2996 RMK A01 T00990088  RH  093%=      5-min Rain = 0
KGO1 230733Z 18008KT 10/09 A2996 RMK A01 T00990088  RH  093%=      5-min Rain = 0
KGO1 230734Z 17009KT 10/09 A2995 RMK A01 T00990089  RH  093%=      5-min Rain = 0
KGO1 230735Z 17008KT 10/09 A2995 RMK A01 T01040092  RH  093%=      5-min Rain = 0
KGO1 230736Z 17010KT 11/09 A2995 RMK A01 T01080093  RH  090%=      5-min Rain = 0
KGO1 230737Z 18008KT 11/09 A2995 RMK A01 T01100091  RH  088%=      5-min Rain = 0
KGO1 230738Z 18008KT 11/09 A2995 RMK A01 T01120091  RH  087%=      5-min Rain = 0
KGO1 230739Z 19008KT 11/09 A2995 RMK A01 T01120091  RH  087%=      5-min Rain = 0
KGO1 230740Z 20008KT 11/09 A2996 RMK A01 T01110090  RH  087%=      5-min Rain = 0
KGO1 230741Z 19007KT 11/09 A2995 RMK A01 T01080089  RH  088%=      5-min Rain = 0
KGO1 230742Z 18006KT 11/09 A2995 RMK A01 T01070089  RH  089%=      5-min Rain = 0
KGO1 230743Z 17007KT 11/09 A2995 RMK A01 T01060089  RH  089%=      5-min Rain = 0
KGO1 230744Z 18007KT 11/09 A2995 RMK A01 T01080090  RH  089%=      5-min Rain = 0
KGO1 230745Z 18008KT 11/09 A2995 RMK A01 T01090090  RH  088%=      5-min Rain = 0
KGO1 230746Z 19007KT 11/09 A2995 RMK A01 T01090089  RH  088%=      5-min Rain = 0
KGO1 230747Z 19007KT 11/09 A2995 RMK A01 T01080089  RH  088%=      5-min Rain = 0
KGO1 230748Z 19007KT 11/09 A2995 RMK A01 T01070089  RH  089%=      5-min Rain = 0
KGO1 230749Z 18007KT 11/09 A2995 RMK A01 T01070089  RH  089%=      5-min Rain = 0
KGO1 230750Z 18008KT 11/09 A2995 RMK A01 T01090089  RH  088%=      5-min Rain = 0
KGO1 230751Z 20007KT 11/09 A2995 RMK A01 T01110090  RH  086%=      5-min Rain = 0
KGO1 230752Z 19007KT 11/09 A2995 RMK A01 T01120090  RH  086%=      5-min Rain = 0
KGO1 230753Z 19007KT 11/09 A2995 RMK A01 T01110090  RH  087%=      5-min Rain = 0
KGO1 230754Z 19006KT 11/09 A2995 RMK A01 T01090089  RH  087%=      5-min Rain = 0
KGO1 230755Z 20007KT 11/09 A2995 RMK A01 T01090089  RH  088%=      5-min Rain = 0
KGO1 230756Z 19007KT 11/09 A2995 RMK A01 T01080089  RH  088%=      5-min Rain = 0
KGO1 230757Z 19006KT 11/09 A2995 RMK A01 T01090089  RH  088%=      5-min Rain = 0
KGO1 230758Z 19008KT 11/09 A2995 RMK A01 T01100090  RH  088%=      5-min Rain = 0
KGO1 230759Z 19008KT 11/09 A2995 RMK A01 T01110090  RH  087%=      5-min Rain = 0
KGO1 230800Z 19007KT 11/09 A2995 RMK A01 T01130090  RH  086%=      5-min Rain = 0
KGO1 230801Z 19007KT 11/09 A2995 RMK A01 T01140091  RH  086%=      5-min Rain = 0
KGO1 230802Z 20005KT 11/09 A2995 RMK A01 T01130090  RH  086%=      5-min Rain = 0
KGO1 230803Z 20006KT 11/09 A2995 RMK A01 T01130090  RH  086%=      5-min Rain = 0
KGO1 230804Z 19006KT 11/09 A2995 RMK A01 T01130090  RH  085%=      5-min Rain = 0
KGO1 230805Z 20006KT 11/09 A2995 RMK A01 T01140090  RH  085%=      5-min Rain = 0
KGO1 230806Z 20007KT 12/09 A2995 RMK A01 T01150090  RH  085%=      5-min Rain = 0
KGO1 230807Z 19007KT 11/09 A2995 RMK A01 T01140089  RH  085%=      5-min Rain = 0
KGO1 230808Z 17006KT 12/09 A2995 RMK A01 T01150089  RH  084%=      5-min Rain = 0
KGO1 230809Z 18006KT 12/09 A2995 RMK A01 T01170089  RH  083%=      5-min Rain = 0
KGO1 230810Z 18006KT 12/09 A2995 RMK A01 T01160089  RH  083%=      5-min Rain = 0
KGO1 230811Z 18006KT 11/09 A2995 RMK A01 T01140088  RH  084%=      5-min Rain = 0
KGO1 230812Z 18006KT 11/09 A2995 RMK A01 T01130088  RH  084%=      5-min Rain = 0
KGO1 230813Z 20006KT 11/09 A2995 RMK A01 T01110087  RH  085%=      5-min Rain = 0
KGO1 230814Z 19005KT 11/09 A2995 RMK A01 T01080087  RH  086%=      5-min Rain = 0
KGO1 230815Z 19005KT 11/09 A2995 RMK A01 T01070087  RH  087%=      5-min Rain = 0
KGO1 230816Z 18005KT 11/09 A2995 RMK A01 T01070087  RH  088%=      5-min Rain = 0
KGO1 230817Z 18005KT 11/09 A2995 RMK A01 T01060087  RH  088%=      5-min Rain = 0
KGO1 230818Z 18005KT 11/09 A2995 RMK A01 T01050086  RH  088%=      5-min Rain = 0
KGO1 230819Z 18005KT 10/09 A2995 RMK A01 T01040086  RH  089%=      5-min Rain = 0
KGO1 230820Z 18005KT 10/09 A2995 RMK A01 T01030085  RH  089%=      5-min Rain = 0
KGO1 230821Z 18004KT 10/09 A2995 RMK A01 T01020085  RH  089%=      5-min Rain = 0
KGO1 230822Z 17005KT 10/09 A2994 RMK A01 T01020085  RH  090%=      5-min Rain = 0
KGO1 230823Z 18005KT 10/09 A2995 RMK A01 T01010085  RH  090%=      5-min Rain = 0
KGO1 230824Z 18005KT 10/09 A2995 RMK A01 T01010085  RH  090%=      5-min Rain = 0
KGO1 230825Z 18005KT 10/08 A2995 RMK A01 T01000084  RH  090%=      5-min Rain = 0
KGO1 230826Z 18005KT 10/08 A2995 RMK A01 T00980084  RH  090%=      5-min Rain = 0
KGO1 230827Z 18005KT 10/08 A2995 RMK A01 T00980084  RH  091%=      5-min Rain = 0
KGO1 230828Z 18005KT 10/08 A2995 RMK A01 T00970083  RH  091%=      5-min Rain = 0
KGO1 230829Z 18005KT 10/08 A2994 RMK A01 T00960084  RH  092%=      5-min Rain = 0
KGO1 230830Z 17005KT 10/08 A2994 RMK A01 T00950084  RH  093%=      5-min Rain = 0
KGO1 230831Z 17005KT 10/08 A2994 RMK A01 T00950084  RH  093%=      5-min Rain = 0
KGO1 230832Z 17006KT 09/08 A2994 RMK A01 T00940083  RH  092%=      5-min Rain = 0
KGO1 230833Z 16006KT 09/08 A2994 RMK A01 T00930082  RH  093%=      5-min Rain = 0
KGO1 230834Z 16005KT 09/08 A2994 RMK A01 T00930082  RH  093%=      5-min Rain = 0
KGO1 230835Z 16005KT 09/08 A2994 RMK A01 T00930083  RH  093%=      5-min Rain = 0
KGO1 230836Z 16005KT 09/08 A2994 RMK A01 T00930083  RH  093%=      5-min Rain = 0
KGO1 230837Z 17005KT 09/08 A2994 RMK A01 T00930083  RH  093%=      5-min Rain = 0
KGO1 230838Z 17004KT 09/08 A2994 RMK A01 T00930083  RH  093%=      5-min Rain = 0
KGO1 230839Z 17004KT 09/08 A2994 RMK A01 T00930082  RH  093%=      5-min Rain = 0
KGO1 230840Z 16004KT 09/08 A2994 RMK A01 T00920082  RH  094%=      5-min Rain = 0
KGO1 230841Z 16004KT 09/08 A2994 RMK A01 T00920083  RH  094%=      5-min Rain = 0
KGO1 230842Z 16004KT 09/08 A2994 RMK A01 T00920083  RH  095%=      5-min Rain = 0
KGO1 230843Z 16004KT 09/08 A2994 RMK A01 T00910083  RH  094%=      5-min Rain = 0
KGO1 230844Z 15004KT 09/08 A2994 RMK A01 T00910082  RH  095%=      5-min Rain = 0
KGO1 230845Z 15004KT 09/08 A2994 RMK A01 T00900083  RH  095%=      5-min Rain = 0
KGO1 230846Z 15004KT 09/09 A2994 RMK A01 T00910085  RH  095%=      5-min Rain = 0
KGO1 230847Z 15004KT 09/09 A2994 RMK A01 T00930086  RH  095%=      5-min Rain = 0
KGO1 230848Z 15003KT 09/09 A2994 RMK A01 T00940085  RH  094%=      5-min Rain = 0
KGO1 230849Z 15003KT 09/09 A2994 RMK A01 T00940085  RH  094%=      5-min Rain = 0
KGO1 230850Z 14003KT 09/09 A2995 RMK A01 T00940085  RH  094%=      5-min Rain = 0
KGO1 230851Z 15004KT 09/09 A2995 RMK A01 T00940085  RH  094%=      5-min Rain = 0
KGO1 230852Z 15004KT 10/09 A2995 RMK A01 T00950085  RH  094%=      5-min Rain = 0
KGO1 230853Z 15004KT 09/09 A2995 RMK A01 T00940085  RH  094%=      5-min Rain = 0
KGO1 230854Z 16004KT 09/09 A2995 RMK A01 T00940085  RH  094%=      5-min Rain = 0
KGO1 230855Z 16004KT 09/08 A2995 RMK A01 T00940083  RH  093%=      5-min Rain = 0
KGO1 230856Z 15004KT 09/08 A2994 RMK A01 T00930082  RH  093%=      5-min Rain = 0
KGO1 230857Z 15004KT 09/08 A2994 RMK A01 T00920081  RH  093%=      5-min Rain = 0
KGO1 230858Z 15004KT 09/08 A2994 RMK A01 T00910081  RH  094%=      5-min Rain = 0
KGO1 230859Z 16003KT 09/08 A2994 RMK A01 T00900081  RH  094%=      5-min Rain = 0
KGO1 230900Z 16003KT 09/08 A2994 RMK A01 T00890081  RH  095%=      5-min Rain = 0
KGO1 230901Z 15003KT 09/08 A2994 RMK A01 T00890082  RH  095%=      5-min Rain = 0
KGO1 230902Z 15003KT 09/08 A2994 RMK A01 T00880081  RH  096%=      5-min Rain = 0
KGO1 230903Z 14003KT 09/08 A2994 RMK A01 T00880081  RH  096%=      5-min Rain = 0
KGO1 230904Z 13004KT 09/08 A2994 RMK A01 T00880083  RH  097%=      5-min Rain = 0
KGO1 230905Z 13004KT 09/08 A2994 RMK A01 T00870083  RH  097%=      5-min Rain = 0
KGO1 230906Z 13003KT 09/08 A2994 RMK A01 T00880083  RH  097%=      5-min Rain = 0
KGO1 230907Z 11003KT 09/08 A2994 RMK A01 T00880083  RH  097%=      5-min Rain = 0
KGO1 230908Z 09004KT 09/08 A2994 RMK A01 T00870082  RH  096%=      5-min Rain = 0
KGO1 230909Z 08005KT 09/08 A2994 RMK A01 T00870081  RH  096%=      5-min Rain = 0
KGO1 230910Z 09006KT 09/08 A2994 RMK A01 T00870082  RH  097%=      5-min Rain = 0
KGO1 230911Z 09006KT 09/08 A2994 RMK A01 T00880083  RH  097%=      5-min Rain = 0
KGO1 230912Z 10006KT 09/08 A2994 RMK A01 T00880083  RH  097%=      5-min Rain = 0
KGO1 230913Z 11006KT 09/08 A2994 RMK A01 T00880083  RH  096%=      5-min Rain = 0
KGO1 230914Z 11006KT 09/08 A2994 RMK A01 T00890083  RH  096%=      5-min Rain = 0
KGO1 230915Z 11006KT 09/08 A2994 RMK A01 T00880083  RH  096%=      5-min Rain = 0
KGO1 230916Z 11006KT 09/08 A2994 RMK A01 T00880082  RH  096%=      5-min Rain = 0
KGO1 230917Z 11005KT 09/08 A2994 RMK A01 T00890083  RH  096%=      5-min Rain = 0
KGO1 230918Z 11005KT 09/08 A2994 RMK A01 T00900083  RH  096%=      5-min Rain = 0
KGO1 230919Z 12004KT 09/08 A2994 RMK A01 T00890082  RH  095%=      5-min Rain = 0
KGO1 230920Z 13003KT 09/08 A2994 RMK A01 T00890081  RH  095%=      5-min Rain = 0
KGO1 230921Z 13003KT 09/08 A2994 RMK A01 T00880080  RH  095%=      5-min Rain = 0
KGO1 230922Z 14002KT 09/08 A2994 RMK A01 T00870079  RH  095%=      5-min Rain = 0
KGO1 230923Z 15002KT 09/08 A2994 RMK A01 T00860079  RH  095%=      5-min Rain = 0
KGO1 230924Z 13002KT 09/08 A2994 RMK A01 T00860080  RH  096%=      5-min Rain = 0
KGO1 230925Z 12002KT 09/08 A2994 RMK A01 T00850080  RH  096%=      5-min Rain = 0
KGO1 230926Z 12002KT 09/08 A2994 RMK A01 T00850080  RH  097%=      5-min Rain = 0
KGO1 230927Z 11002KT 09/08 A2994 RMK A01 T00850080  RH  097%=      5-min Rain = 0
KGO1 230928Z 10003KT 09/08 A2994 RMK A01 T00850080  RH  097%=      5-min Rain = 0
KGO1 230929Z 09005KT 08/08 A2994 RMK A01 T00840080  RH  097%=      5-min Rain = 0
KGO1 230930Z 09006KT 08/08 A2994 RMK A01 T00830079  RH  097%=      5-min Rain = 0
KGO1 230931Z 10006KT 08/08 A2994 RMK A01 T00830079  RH  097%=      5-min Rain = 0
KGO1 230932Z 11007KT 08/08 A2994 RMK A01 T00830080  RH  098%=      5-min Rain = 0
KGO1 230933Z 10009KT 08/08 A2993 RMK A01 T00840082  RH  098%=      5-min Rain = 0
KGO1 230934Z 11011KT 09/09 A2993 RMK A01 T00860085  RH  099%=      5-min Rain = 0
KGO1 230935Z 11011KT 09/09 A2993 RMK A01 T00880086  RH  099%=      5-min Rain = 0
KGO1 230936Z 11010KT 09/09 A2993 RMK A01 T00880086  RH  099%=      5-min Rain = 0
KGO1 230937Z 12011KT 09/09 A2993 RMK A01 T00880086  RH  099%=      5-min Rain = 0
KGO1 230938Z 11011KT 09/09 A2993 RMK A01 T00880086  RH  098%=      5-min Rain = 0
KGO1 230939Z 11010KT 09/09 A2993 RMK A01 T00870085  RH  099%=      5-min Rain = 0
KGO1 230940Z 12009KT 09/09 A2993 RMK A01 T00880086  RH  099%=      5-min Rain = 0
KGO1 230941Z 12008KT 09/09 A2992 RMK A01 T00870085  RH  099%=      5-min Rain = 0
KGO1 230942Z 12008KT 09/09 A2993 RMK A01 T00870085  RH  099%=      5-min Rain = 0
KGO1 230943Z 12007KT 09/08 A2993 RMK A01 T00860084  RH  099%=      5-min Rain = 0
KGO1 230944Z 12007KT 09/08 A2993 RMK A01 T00860084  RH  099%=      5-min Rain = 0
KGO1 230945Z 12007KT 09/08 A2993 RMK A01 T00850084  RH  099%=      5-min Rain = 0
KGO1 230946Z 13007KT 09/08 A2993 RMK A01 T00850084  RH  099%=      5-min Rain = 0
KGO1 230947Z 12007KT 09/08 A2993 RMK A01 T00850084  RH  099%=      5-min Rain = 0
KGO1 230948Z 12006KT 09/08 A2993 RMK A01 T00850084  RH  099%=      5-min Rain = 0
KGO1 230949Z 12005KT 09/08 A2993 RMK A01 T00850084  RH  099%=      5-min Rain = 0
KGO1 230950Z 12006KT 08/08 A2993 RMK A01 T00840083  RH  099%=      5-min Rain = 0
KGO1 230951Z 11006KT 08/08 A2993 RMK A01 T00840083  RH  099%=      5-min Rain = 0
KGO1 230952Z 11007KT 08/08 A2993 RMK A01 T00830082  RH  099%=      5-min Rain = 0
KGO1 230953Z 10007KT 08/08 A2992 RMK A01 T00830082  RH  100%=      5-min Rain = 0
KGO1 230954Z 10008KT 08/08 A2992 RMK A01 T00820081  RH  100%=      5-min Rain = 0
KGO1 230955Z 11008KT 08/08 A2992 RMK A01 T00820082  RH  100%=      5-min Rain = 0
KGO1 230956Z 10008KT 08/08 A2992 RMK A01 T00820082  RH  100%=      5-min Rain = 0
KGO1 230957Z 10008KT 08/08 A2992 RMK A01 T00830083  RH  100%=      5-min Rain = 0
KGO1 230958Z 10008KT 08/08 A2992 RMK A01 T00820082  RH  100%=      5-min Rain = 0
KGO1 230959Z 10007KT 08/08 A2993 RMK A01 T00830082  RH  100%=      5-min Rain = 0
KGO1 231000Z 10007KT 08/08 A2993 RMK A01 T00820082  RH  100%=      5-min Rain = 0
KGO1 231001Z 10007KT 08/08 A2993 RMK A01 T00820082  RH  100%=      5-min Rain = 0
KGO1 231002Z 10008KT 08/08 A2993 RMK A01 T00820082  RH  100%=      5-min Rain = 0
KGO1 231003Z 10008KT 08/08 A2993 RMK A01 T00810081  RH  100%=      5-min Rain = 0
KGO1 231004Z 10008KT 08/08 A2993 RMK A01 T00820082  RH  100%=      5-min Rain = 0
KGO1 231005Z 10007KT 08/08 A2993 RMK A01 T00810081  RH  100%=      5-min Rain = 0
KGO1 231006Z 11007KT 08/08 A2993 RMK A01 T00810081  RH  100%=      5-min Rain = 0
KGO1 231007Z 11007KT 08/08 A2993 RMK A01 T00810081  RH  100%=      5-min Rain = 0
KGO1 231008Z 11007KT 08/08 A2993 RMK A01 T00800080  RH  100%=      5-min Rain = 0
KGO1 231009Z 11007KT 08/08 A2993 RMK A01 T00800080  RH  100%=      5-min Rain = 0
KGO1 231010Z 11008KT 08/08 A2993 RMK A01 T00800080  RH  100%=      5-min Rain = 0
KGO1 231011Z 11007KT 08/08 A2993 RMK A01 T00790079  RH  100%=      5-min Rain = 0
KGO1 231012Z 11006KT 08/08 A2994 RMK A01 T00790079  RH  100%=      5-min Rain = 0
KGO1 231013Z 11005KT 08/08 A2994 RMK A01 T00790079  RH  100%=      5-min Rain = 0
KGO1 231014Z 11005KT 08/08 A2994 RMK A01 T00790079  RH  100%=      5-min Rain = 0
KGO1 231015Z 11006KT 08/08 A2994 RMK A01 T00780078  RH  100%=      5-min Rain = 0
KGO1 231016Z 11006KT 08/08 A2994 RMK A01 T00780078  RH  100%=      5-min Rain = 0
KGO1 231017Z 11005KT 08/08 A2994 RMK A01 T00770077  RH  100%=      5-min Rain = 0
KGO1 231018Z 11006KT 08/08 A2994 RMK A01 T00770077  RH  100%=      5-min Rain = 0
KGO1 231019Z 11007KT 08/08 A2994 RMK A01 T00770077  RH  100%=      5-min Rain = 0
KGO1 231020Z 11007KT 08/08 A2994 RMK A01 T00770077  RH  100%=      5-min Rain = 0
KGO1 231021Z 11008KT 08/08 A2994 RMK A01 T00770077  RH  100%=      5-min Rain = 0
KGO1 231022Z 11008KT 08/08 A2994 RMK A01 T00770077  RH  100%=      5-min Rain = 0
KGO1 231023Z 11007KT 08/08 A2994 RMK A01 T00770077  RH  100%=      5-min Rain = 0
KGO1 231024Z 12006KT 08/08 A2994 RMK A01 T00770077  RH  100%=      5-min Rain = 0
KGO1 231025Z 11006KT 08/08 A2994 RMK A01 T00770077  RH  100%=      5-min Rain = 0
KGO1 231026Z 11006KT 08/08 A2994 RMK A01 T00760076  RH  100%=      5-min Rain = 0
KGO1 231027Z 11007KT 08/08 A2994 RMK A01 T00760075  RH  100%=      5-min Rain = 0
KGO1 231028Z 11006KT 08/08 A2994 RMK A01 T00750075  RH  100%=      5-min Rain = 0
KGO1 231029Z 11005KT 08/08 A2994 RMK A01 T00750075  RH  100%=      5-min Rain = 0
KGO1 231030Z 11004KT 08/08 A2995 RMK A01 T00750075  RH  100%=      5-min Rain = 0
KGO1 231031Z 11004KT 08/08 A2995 RMK A01 T00750075  RH  100%=      5-min Rain = 0
KGO1 231032Z 11004KT 08/08 A2995 RMK A01 T00750075  RH  100%=      5-min Rain = 0
KGO1 231033Z 11004KT 07/07 A2995 RMK A01 T00740074  RH  100%=      5-min Rain = 0
KGO1 231034Z 11004KT 07/07 A2995 RMK A01 T00740074  RH  100%=      5-min Rain = 0
KGO1 231035Z 12003KT 07/07 A2995 RMK A01 T00730073  RH  100%=      5-min Rain = 0
KGO1 231036Z 12003KT 07/07 A2995 RMK A01 T00730072  RH  100%=      5-min Rain = 0
KGO1 231037Z 11003KT 07/07 A2995 RMK A01 T00720072  RH  100%=      5-min Rain = 0
KGO1 231038Z 11003KT 07/07 A2995 RMK A01 T00710071  RH  100%=      5-min Rain = 0
KGO1 231039Z 10003KT 07/07 A2995 RMK A01 T00700070  RH  100%=      5-min Rain = 0
KGO1 231040Z 10004KT 07/07 A2995 RMK A01 T00700070  RH  100%=      5-min Rain = 0
KGO1 231041Z 10004KT 07/07 A2995 RMK A01 T00690069  RH  100%=      5-min Rain = 0
KGO1 231042Z 10004KT 07/07 A2995 RMK A01 T00680068  RH  100%=      5-min Rain = 0
KGO1 231043Z 10004KT 07/07 A2995 RMK A01 T00690068  RH  100%=      5-min Rain = 0
KGO1 231044Z 09005KT 07/07 A2995 RMK A01 T00690069  RH  100%=      5-min Rain = 0
KGO1 231045Z 09006KT 07/07 A2995 RMK A01 T00690069  RH  100%=      5-min Rain = 0
KGO1 231046Z 09005KT 07/07 A2995 RMK A01 T00710071  RH  100%=      5-min Rain = 0
KGO1 231047Z 10006KT 07/07 A2995 RMK A01 T00710071  RH  100%=      5-min Rain = 0
KGO1 231048Z 10006KT 07/07 A2995 RMK A01 T00730073  RH  100%=      5-min Rain = 0
KGO1 231049Z 11005KT 07/07 A2995 RMK A01 T00740074  RH  100%=      5-min Rain = 0
KGO1 231050Z 12005KT 07/07 A2995 RMK A01 T00740074  RH  100%=      5-min Rain = 0
KGO1 231051Z 12005KT 07/07 A2995 RMK A01 T00740073  RH  100%=      5-min Rain = 0
KGO1 231052Z 12004KT 07/07 A2995 RMK A01 T00730073  RH  100%=      5-min Rain = 0
KGO1 231053Z 11004KT 07/07 A2995 RMK A01 T00730073  RH  100%=      5-min Rain = 0
KGO1 231054Z 10004KT 07/07 A2995 RMK A01 T00720072  RH  100%=      5-min Rain = 0
KGO1 231055Z 09004KT 07/07 A2995 RMK A01 T00720072  RH  100%=      5-min Rain = 0
KGO1 231056Z 09004KT 07/07 A2995 RMK A01 T00710071  RH  100%=      5-min Rain = 0
KGO1 231057Z 08004KT 07/07 A2995 RMK A01 T00710071  RH  100%=      5-min Rain = 0
KGO1 231058Z 08004KT 07/07 A2995 RMK A01 T00710071  RH  100%=      5-min Rain = 0
KGO1 231059Z 08004KT 07/07 A2995 RMK A01 T00710071  RH  100%=      5-min Rain = 0
KGO1 231100Z 07003KT 07/07 A2995 RMK A01 T00710071  RH  100%=      5-min Rain = 0
KGO1 231101Z 08003KT 07/07 A2995 RMK A01 T00710071  RH  100%=      5-min Rain = 0
KGO1 231102Z 09005KT 07/07 A2995 RMK A01 T00710071  RH  100%=      5-min Rain = 0
KGO1 231103Z 09005KT 07/07 A2995 RMK A01 T00720071  RH  100%=      5-min Rain = 0
KGO1 231104Z 09004KT 07/07 A2995 RMK A01 T00720072  RH  100%=      5-min Rain = 0
KGO1 231105Z 10003KT 07/07 A2996 RMK A01 T00720072  RH  100%=      5-min Rain = 0
KGO1 231106Z 10003KT 07/07 A2996 RMK A01 T00720072  RH  100%=      5-min Rain = 0
KGO1 231107Z 11004KT 07/07 A2996 RMK A01 T00720072  RH  100%=      5-min Rain = 0
KGO1 231108Z 11004KT 07/07 A2995 RMK A01 T00720072  RH  100%=      5-min Rain = 0
KGO1 231109Z 10004KT 07/07 A2995 RMK A01 T00720072  RH  100%=      5-min Rain = 0
KGO1 231110Z 10003KT 07/07 A2995 RMK A01 T00720072  RH  100%=      5-min Rain = 0
KGO1 231111Z 10004KT 07/07 A2995 RMK A01 T00720072  RH  100%=      5-min Rain = 0
KGO1 231112Z 10005KT 07/07 A2996 RMK A01 T00720072  RH  100%=      5-min Rain = 0
KGO1 231113Z 10004KT 07/07 A2996 RMK A01 T00710071  RH  100%=      5-min Rain = 0
KGO1 231114Z 10004KT 07/07 A2996 RMK A01 T00710071  RH  100%=      5-min Rain = 0
KGO1 231115Z 10004KT 07/07 A2996 RMK A01 T00710071  RH  100%=      5-min Rain = 0
KGO1 231116Z 09004KT 07/07 A2996 RMK A01 T00710071  RH  100%=      5-min Rain = 0
KGO1 231117Z 08003KT 07/07 A2996 RMK A01 T00710071  RH  100%=      5-min Rain = 0
KGO1 231118Z 08003KT 07/07 A2996 RMK A01 T00710071  RH  100%=      5-min Rain = 0
KGO1 231119Z 09002KT 07/07 A2996 RMK A01 T00710071  RH  100%=      5-min Rain = 0
KGO1 231120Z 09004KT 07/07 A2996 RMK A01 T00720072  RH  100%=      5-min Rain = 0
KGO1 231121Z 09003KT 07/07 A2996 RMK A01 T00720072  RH  100%=      5-min Rain = 0
KGO1 231122Z 09004KT 07/07 A2996 RMK A01 T00720072  RH  100%=      5-min Rain = 0
KGO1 231123Z 09004KT 07/07 A2996 RMK A01 T00720072  RH  100%=      5-min Rain = 0
KGO1 231124Z 09003KT 07/07 A2996 RMK A01 T00720072  RH  100%=      5-min Rain = 0
KGO1 231125Z 08004KT 07/07 A2996 RMK A01 T00730073  RH  100%=      5-min Rain = 0
KGO1 231126Z 09005KT 07/07 A2996 RMK A01 T00730073  RH  100%=      5-min Rain = 0
KGO1 231127Z 09005KT 07/07 A2996 RMK A01 T00730073  RH  100%=      5-min Rain = 0
KGO1 231128Z 10004KT 07/07 A2996 RMK A01 T00730073  RH  100%=      5-min Rain = 0
KGO1 231129Z 10004KT 07/07 A2996 RMK A01 T00730073  RH  100%=      5-min Rain = 0
KGO1 231130Z 09003KT 07/07 A2996 RMK A01 T00730073  RH  100%=      5-min Rain = 0
KGO1 231131Z 08002KT 07/07 A2996 RMK A01 T00730073  RH  100%=      5-min Rain = 0
KGO1 231132Z 08002KT 07/07 A2996 RMK A01 T00730073  RH  100%=      5-min Rain = 0
KGO1 231133Z 09002KT 07/07 A2996 RMK A01 T00730073  RH  100%=      5-min Rain = 0
KGO1 231134Z 08003KT 07/07 A2996 RMK A01 T00730073  RH  100%=      5-min Rain = 0
KGO1 231135Z 09004KT 07/07 A2996 RMK A01 T00730073  RH  100%=      5-min Rain = 0
KGO1 231136Z 10004KT 07/07 A2996 RMK A01 T00730073  RH  100%=      5-min Rain = 0
KGO1 231137Z 09005KT 07/07 A2996 RMK A01 T00730073  RH  100%=      5-min Rain = 0
KGO1 231138Z 09005KT 07/07 A2996 RMK A01 T00720072  RH  100%=      5-min Rain = 0
KGO1 231139Z 09004KT 07/07 A2996 RMK A01 T00720072  RH  100%=      5-min Rain = 0
KGO1 231140Z 08004KT 07/07 A2996 RMK A01 T00730073  RH  100%=      5-min Rain = 0
KGO1 231141Z 09004KT 07/07 A2996 RMK A01 T00730073  RH  100%=      5-min Rain = 0
KGO1 231142Z 09005KT 07/07 A2996 RMK A01 T00720072  RH  100%=      5-min Rain = 0
KGO1 231143Z 09005KT 07/07 A2996 RMK A01 T00730072  RH  100%=      5-min Rain = 0
KGO1 231144Z 09004KT 07/07 A2996 RMK A01 T00720072  RH  100%=      5-min Rain = 0
KGO1 231145Z 08003KT 07/07 A2996 RMK A01 T00720072  RH  100%=      5-min Rain = 0
KGO1 231146Z 08004KT 07/07 A2996 RMK A01 T00730073  RH  100%=      5-min Rain = 0
KGO1 231147Z 09004KT 07/07 A2996 RMK A01 T00730072  RH  100%=      5-min Rain = 0
KGO1 231148Z 09004KT 07/07 A2997 RMK A01 T00720072  RH  100%=      5-min Rain = 0
KGO1 231149Z 09004KT 07/07 A2997 RMK A01 T00730072  RH  100%=      5-min Rain = 0
KGO1 231150Z 09004KT 07/07 A2997 RMK A01 T00720072  RH  100%=      5-min Rain = 0
KGO1 231151Z 10004KT 07/07 A2997 RMK A01 T00720072  RH  100%=      5-min Rain = 0
KGO1 231152Z 09004KT 07/07 A2997 RMK A01 T00720072  RH  100%=      5-min Rain = 0
KGO1 231153Z 09004KT 07/07 A2997 RMK A01 T00720072  RH  100%=      5-min Rain = 0
KGO1 231154Z 08003KT 07/07 A2997 RMK A01 T00720072  RH  100%=      5-min Rain = 0
KGO1 231155Z 09003KT 07/07 A2997 RMK A01 T00720072  RH  100%=      5-min Rain = 0
KGO1 231156Z 07003KT 07/07 A2997 RMK A01 T00720072  RH  100%=      5-min Rain = 0
KGO1 231157Z 07002KT 07/07 A2997 RMK A01 T00720072  RH  100%=      5-min Rain = 0
KGO1 231158Z 07003KT 07/07 A2997 RMK A01 T00720072  RH  100%=      5-min Rain = 0
KGO1 231159Z 07003KT 07/07 A2997 RMK A01 T00720072  RH  100%=      5-min Rain = 0
KGO1 231200Z 07004KT 07/07 A2997 RMK A01 T00720072  RH  100%=      5-min Rain = 0
KGO1 231201Z 07003KT 07/07 A2997 RMK A01 T00720072  RH  100%=      5-min Rain = 0
KGO1 231202Z 06003KT 07/07 A2997 RMK A01 T00720072  RH  100%=      5-min Rain = 0
KGO1 231203Z 05003KT 07/07 A2997 RMK A01 T00720072  RH  100%=      5-min Rain = 0
KGO1 231204Z 04003KT 07/07 A2997 RMK A01 T00720072  RH  100%=      5-min Rain = 0
KGO1 231205Z 03003KT 07/07 A2997 RMK A01 T00720072  RH  100%=      5-min Rain = 0
KGO1 231206Z 03004KT 07/07 A2997 RMK A01 T00720072  RH  100%=      5-min Rain = 0
KGO1 231207Z 02004KT 07/07 A2998 RMK A01 T00720072  RH  100%=      5-min Rain = 0
KGO1 231208Z 01005KT 07/07 A2998 RMK A01 T00720072  RH  100%=      5-min Rain = 0
KGO1 231209Z 01006KT 07/07 A2998 RMK A01 T00720072  RH  100%=      5-min Rain = 0
KGO1 231210Z 02005KT 07/07 A2998 RMK A01 T00720072  RH  100%=      5-min Rain = 0
KGO1 231211Z 01005KT 07/07 A2998 RMK A01 T00720072  RH  100%=      5-min Rain = 0
KGO1 231212Z 01004KT 07/07 A2998 RMK A01 T00720072  RH  100%=      5-min Rain = 0
KGO1 231213Z 01004KT 07/07 A2998 RMK A01 T00720072  RH  100%=      5-min Rain = 0
KGO1 231214Z 00004KT 07/07 A2998 RMK A01 T00720072  RH  100%=      5-min Rain = 0
KGO1 231215Z 00005KT 07/07 A2998 RMK A01 T00720071  RH  100%=      5-min Rain = 0
KGO1 231216Z 36004KT 07/07 A2998 RMK A01 T00710071  RH  100%=      5-min Rain = 0
KGO1 231217Z 01004KT 07/07 A2998 RMK A01 T00720072  RH  100%=      5-min Rain = 0
KGO1 231218Z 02004KT 07/07 A2998 RMK A01 T00720071  RH  100%=      5-min Rain = 0
KGO1 231219Z 02004KT 07/07 A2998 RMK A01 T00710071  RH  100%=      5-min Rain = 0
KGO1 231220Z 01004KT 07/07 A2998 RMK A01 T00720071  RH  100%=      5-min Rain = 0
KGO1 231221Z 01003KT 07/07 A2998 RMK A01 T00720072  RH  100%=      5-min Rain = 0
KGO1 231222Z 36003KT 07/07 A2998 RMK A01 T00720071  RH  100%=      5-min Rain = 0
KGO1 231223Z 36004KT 07/07 A2998 RMK A01 T00720072  RH  100%=      5-min Rain = 0
KGO1 231224Z 34004KT 07/07 A2998 RMK A01 T00720072  RH  100%=      5-min Rain = 0
KGO1 231225Z 33004KT 07/07 A2998 RMK A01 T00720072  RH  100%=      5-min Rain = 0
KGO1 231226Z 33004KT 07/07 A2998 RMK A01 T00720072  RH  100%=      5-min Rain = 0
KGO1 231227Z 33004KT 07/07 A2999 RMK A01 T00730073  RH  100%=      5-min Rain = 0
KGO1 231228Z 33004KT 07/07 A2999 RMK A01 T00730073  RH  100%=      5-min Rain = 0
KGO1 231229Z 33003KT 07/07 A2999 RMK A01 T00730073  RH  100%=      5-min Rain = 0
KGO1 231230Z 33004KT 07/07 A2999 RMK A01 T00740074  RH  100%=      5-min Rain = 0
KGO1 231231Z 34003KT 07/07 A2999 RMK A01 T00740074  RH  100%=      5-min Rain = 0
KGO1 231232Z 35004KT 07/07 A2999 RMK A01 T00740074  RH  100%=      5-min Rain = 0
KGO1 231233Z 35003KT 07/07 A2999 RMK A01 T00740074  RH  100%=      5-min Rain = 0
KGO1 231234Z 35003KT 07/07 A2999 RMK A01 T00740074  RH  100%=      5-min Rain = 0
KGO1 231235Z 35002KT 07/07 A2999 RMK A01 T00740074  RH  100%=      5-min Rain = 0
KGO1 231236Z 00002KT 07/07 A2999 RMK A01 T00740074  RH  100%=      5-min Rain = 0
KGO1 231237Z 00002KT 07/07 A2999 RMK A01 T00740074  RH  100%=      5-min Rain = 0
KGO1 231238Z 00002KT 07/07 A2999 RMK A01 T00740073  RH  100%=      5-min Rain = 0
KGO1 231239Z 00003KT 07/07 A2999 RMK A01 T00730073  RH  100%=      5-min Rain = 0
KGO1 231240Z 36003KT 07/07 A2999 RMK A01 T00730073  RH  100%=      5-min Rain = 0
KGO1 231241Z 00003KT 07/07 A2999 RMK A01 T00730073  RH  100%=      5-min Rain = 0
KGO1 231242Z 36004KT 07/07 A2999 RMK A01 T00730073  RH  100%=      5-min Rain = 0
KGO1 231243Z 00004KT 07/07 A2999 RMK A01 T00730073  RH  100%=      5-min Rain = 0
KGO1 231244Z 00004KT 07/07 A2999 RMK A01 T00730073  RH  100%=      5-min Rain = 0
KGO1 231245Z 01003KT 07/07 A2999 RMK A01 T00740074  RH  100%=      5-min Rain = 0
KGO1 231246Z 01004KT 07/07 A2999 RMK A01 T00740074  RH  100%=      5-min Rain = 0
KGO1 231247Z 00003KT 07/07 A2999 RMK A01 T00740074  RH  100%=      5-min Rain = 0
KGO1 231248Z 01004KT 07/07 A2999 RMK A01 T00740074  RH  100%=      5-min Rain = 0
KGO1 231249Z 00004KT 07/07 A2999 RMK A01 T00740074  RH  100%=      5-min Rain = 0
KGO1 231250Z 36003KT 07/07 A2999 RMK A01 T00740074  RH  100%=      5-min Rain = 0
KGO1 231251Z 36003KT 07/07 A2999 RMK A01 T00740074  RH  100%=      5-min Rain = 0
KGO1 231252Z 00003KT 07/07 A2999 RMK A01 T00740074  RH  100%=      5-min Rain = 0
KGO1 231253Z 00003KT 07/07 A2999 RMK A01 T00740074  RH  100%=      5-min Rain = 0
KGO1 231254Z 00003KT 07/07 A2999 RMK A01 T00740074  RH  100%=      5-min Rain = 0
KGO1 231255Z 00003KT 07/07 A2999 RMK A01 T00740074  RH  100%=      5-min Rain = 0
KGO1 231256Z 01004KT 07/07 A2999 RMK A01 T00740074  RH  100%=      5-min Rain = 0
KGO1 231257Z 02004KT 07/07 A2999 RMK A01 T00740074  RH  100%=      5-min Rain = 0
KGO1 231258Z 02004KT 07/07 A2999 RMK A01 T00740074  RH  100%=      5-min Rain = 0
KGO1 231259Z 02003KT 07/07 A2999 RMK A01 T00740074  RH  100%=      5-min Rain = 0
KGO1 231300Z 02003KT 07/07 A2999 RMK A01 T00740074  RH  100%=      5-min Rain = 0
KGO1 231301Z 02003KT 07/07 A2999 RMK A01 T00740074  RH  100%=      5-min Rain = 0
KGO1 231302Z 02003KT 07/07 A2999 RMK A01 T00740074  RH  100%=      5-min Rain = 0
KGO1 231303Z 02003KT 07/07 A2999 RMK A01 T00740074  RH  100%=      5-min Rain = 0
KGO1 231304Z 01003KT 07/07 A30 RMK A01 T00740074  RH  100%=      5-min Rain = 0
KGO1 231305Z 01003KT 07/07 A30 RMK A01 T00740074  RH  100%=      5-min Rain = 0
KGO1 231306Z 00003KT 07/07 A30 RMK A01 T00740074  RH  100%=      5-min Rain = 0
KGO1 231307Z 00002KT 07/07 A30 RMK A01 T00740074  RH  100%=      5-min Rain = 0
KGO1 231308Z 35002KT 07/07 A30 RMK A01 T00740074  RH  100%=      5-min Rain = 0
KGO1 231309Z 35002KT 07/07 A30 RMK A01 T00740074  RH  100%=      5-min Rain = 0
KGO1 231310Z 35001KT 07/07 A30 RMK A01 T00740074  RH  100%=      5-min Rain = 0
KGO1 231311Z 01001KT 07/07 A30 RMK A01 T00740074  RH  100%=      5-min Rain = 0
KGO1 231312Z 02001KT 07/07 A30 RMK A01 T00740074  RH  100%=      5-min Rain = 0
KGO1 231313Z 04002KT 07/07 A30 RMK A01 T00740074  RH  100%=      5-min Rain = 0
KGO1 231314Z 04001KT 07/07 A30 RMK A01 T00740074  RH  100%=      5-min Rain = 0
KGO1 231315Z 06001KT 08/08 A30 RMK A01 T00750075  RH  100%=      5-min Rain = 0
KGO1 231316Z 06000KT 08/08 A30 RMK A01 T00750075  RH  100%=      5-min Rain = 0
KGO1 231317Z 07001KT 08/08 A30 RMK A01 T00750075  RH  100%=      5-min Rain = 0
KGO1 231318Z 07001KT 08/08 A30 RMK A01 T00760076  RH  100%=      5-min Rain = 0
KGO1 231319Z 07001KT 08/08 A30 RMK A01 T00760076  RH  100%=      5-min Rain = 0
KGO1 231320Z 07001KT 08/08 A30 RMK A01 T00760075  RH  100%=      5-min Rain = 0
KGO1 231321Z 07000KT 08/08 A30 RMK A01 T00760075  RH  100%=      5-min Rain = 0
KGO1 231322Z 00000KT 08/08 A30 RMK A01 T00760076  RH  100%=      5-min Rain = 0
KGO1 231323Z 00000KT 08/08 A30 RMK A01 T00760076  RH  100%=      5-min Rain = 0
KGO1 231324Z 00000KT 08/08 A30 RMK A01 T00760076  RH  100%=      5-min Rain = 0
KGO1 231325Z 00000KT 08/08 A30 RMK A01 T00760076  RH  100%=      5-min Rain = 0
KGO1 231326Z 00000KT 08/08 A30 RMK A01 T00770077  RH  100%=      5-min Rain = 0
KGO1 231327Z 00000KT 08/08 A30 RMK A01 T00770077  RH  100%=      5-min Rain = 0
KGO1 231328Z 00000KT 08/08 A30 RMK A01 T00770077  RH  100%=      5-min Rain = 0
KGO1 231329Z 00000KT 08/08 A30 RMK A01 T00770077  RH  100%=      5-min Rain = 0
KGO1 231330Z 00000KT 08/08 A30 RMK A01 T00770077  RH  100%=      5-min Rain = 0
KGO1 231331Z 00000KT 08/08 A30 RMK A01 T00770077  RH  100%=      5-min Rain = 0
KGO1 231332Z 00000KT 08/08 A30 RMK A01 T00780077  RH  100%=      5-min Rain = 0
KGO1 231333Z 00000KT 08/08 A30 RMK A01 T00770077  RH  100%=      5-min Rain = 0
KGO1 231334Z 14001KT 08/08 A30 RMK A01 T00780078  RH  100%=      5-min Rain = 0
KGO1 231335Z 15002KT 08/08 A30 RMK A01 T00770077  RH  100%=      5-min Rain = 0
KGO1 231336Z 14002KT 08/08 A30 RMK A01 T00780078  RH  100%=      5-min Rain = 0
KGO1 231337Z 14003KT 08/08 A30 RMK A01 T00780078  RH  100%=      5-min Rain = 0
KGO1 231338Z 14003KT 08/08 A30 RMK A01 T00770077  RH  100%=      5-min Rain = 0
KGO1 231339Z 15004KT 08/08 A30 RMK A01 T00770077  RH  100%=      5-min Rain = 0
KGO1 231340Z 15004KT 08/08 A30 RMK A01 T00780078  RH  100%=      5-min Rain = 0
KGO1 231341Z 15004KT 08/08 A30 RMK A01 T00780078  RH  100%=      5-min Rain = 0
KGO1 231342Z 15004KT 08/08 A30 RMK A01 T00790079  RH  100%=      5-min Rain = 0
KGO1 231343Z 15005KT 08/08 A30 RMK A01 T00790079  RH  100%=      5-min Rain = 0
KGO1 231344Z 15005KT 08/08 A2999 RMK A01 T00790079  RH  100%=      5-min Rain = 0
KGO1 231345Z 15005KT 08/08 A2999 RMK A01 T00790079  RH  100%=      5-min Rain = 0
KGO1 231346Z 15006KT 08/08 A2999 RMK A01 T00800080  RH  100%=      5-min Rain = 0
KGO1 231347Z 15005KT 08/08 A2999 RMK A01 T00800080  RH  100%=      5-min Rain = 0
KGO1 231348Z 15005KT 08/08 A2999 RMK A01 T00800080  RH  100%=      5-min Rain = 0
KGO1 231349Z 15005KT 08/08 A2999 RMK A01 T00800080  RH  100%=      5-min Rain = 0
KGO1 231350Z 16003KT 08/08 A2999 RMK A01 T00800080  RH  100%=      5-min Rain = 0
KGO1 231351Z 16003KT 08/08 A2999 RMK A01 T00810081  RH  100%=      5-min Rain = 0
KGO1 231352Z 15003KT 08/08 A2999 RMK A01 T00810081  RH  100%=      5-min Rain = 0
KGO1 231353Z 16003KT 08/08 A30 RMK A01 T00810081  RH  100%=      5-min Rain = 0
KGO1 231354Z 15004KT 08/08 A30 RMK A01 T00810080  RH  100%=      5-min Rain = 0
KGO1 231355Z 15004KT 08/08 A30 RMK A01 T00810081  RH  100%=      5-min Rain = 0
KGO1 231356Z 16004KT 08/08 A30 RMK A01 T00810081  RH  100%=      5-min Rain = 0
KGO1 231357Z 17004KT 08/08 A30 RMK A01 T00810081  RH  100%=      5-min Rain = 0
KGO1 231358Z 17003KT 08/08 A30 RMK A01 T00810081  RH  100%=      5-min Rain = 0
KGO1 231359Z 18002KT 08/08 A30 RMK A01 T00810081  RH  100%=      5-min Rain = 0
KGO1 231400Z 19002KT 08/08 A30 RMK A01 T00810081  RH  100%=      5-min Rain = 0
KGO1 231401Z 18002KT 08/08 A30 RMK A01 T00810081  RH  100%=      5-min Rain = 0
KGO1 231402Z 18002KT 08/08 A30 RMK A01 T00800080  RH  100%=      5-min Rain = 0
KGO1 231403Z 19002KT 08/08 A30 RMK A01 T00800080  RH  100%=      5-min Rain = 0
KGO1 231404Z 20002KT 08/08 A30 RMK A01 T00810081  RH  100%=      5-min Rain = 0
KGO1 231405Z 20002KT 08/08 A30 RMK A01 T00810081  RH  100%=      5-min Rain = 0
KGO1 231406Z 21002KT 08/08 A30 RMK A01 T00810081  RH  100%=      5-min Rain = 0
KGO1 231407Z 22002KT 08/08 A30 RMK A01 T00820082  RH  100%=      5-min Rain = 0
KGO1 231408Z 21002KT 08/08 A30 RMK A01 T00820082  RH  100%=      5-min Rain = 0
KGO1 231409Z 22002KT 08/08 A30 RMK A01 T00820082  RH  100%=      5-min Rain = 0
KGO1 231410Z 21003KT 08/08 A30 RMK A01 T00820082  RH  100%=      5-min Rain = 0
KGO1 231411Z 23003KT 08/08 A30 RMK A01 T00830083  RH  100%=      5-min Rain = 0
KGO1 231412Z 24003KT 08/08 A30 RMK A01 T00820082  RH  100%=      5-min Rain = 0
KGO1 231413Z 21002KT 08/08 A30 RMK A01 T00820082  RH  100%=      5-min Rain = 0
KGO1 231414Z 22002KT 08/08 A30 RMK A01 T00820082  RH  100%=      5-min Rain = 0
KGO1 231415Z 23003KT 08/08 A30 RMK A01 T00820082  RH  100%=      5-min Rain = 0
KGO1 231416Z 21004KT 08/08 A30 RMK A01 T00820082  RH  100%=      5-min Rain = 0
KGO1 231417Z 22005KT 08/08 A30 RMK A01 T00810081  RH  100%=      5-min Rain = 0
KGO1 231418Z 21003KT 08/08 A30 RMK A01 T00810081  RH  100%=      5-min Rain = 0
KGO1 231419Z 21003KT 08/08 A30 RMK A01 T00810081  RH  100%=      5-min Rain = 0
KGO1 231420Z 20004KT 08/08 A30 RMK A01 T00810081  RH  100%=      5-min Rain = 0
KGO1 231421Z 20003KT 08/08 A30 RMK A01 T00810081  RH  100%=      5-min Rain = 0
KGO1 231422Z 19003KT 08/08 A30 RMK A01 T00810081  RH  100%=      5-min Rain = 0
KGO1 231423Z 19004KT 08/08 A30 RMK A01 T00810081  RH  100%=      5-min Rain = 0
KGO1 231424Z 20004KT 08/08 A30 RMK A01 T00820082  RH  100%=      5-min Rain = 0
KGO1 231425Z 20003KT 08/08 A30 RMK A01 T00820082  RH  100%=      5-min Rain = 0
KGO1 231426Z 20003KT 08/08 A30 RMK A01 T00810081  RH  100%=      5-min Rain = 0
KGO1 231427Z 20003KT 08/08 A30 RMK A01 T00810081  RH  100%=      5-min Rain = 0
KGO1 231428Z 21003KT 08/08 A3001 RMK A01 T00820082  RH  100%=      5-min Rain = 0
KGO1 231429Z 20003KT 08/08 A3001 RMK A01 T00820082  RH  100%=      5-min Rain = 0
KGO1 231430Z 20002KT 08/08 A3001 RMK A01 T00820082  RH  100%=      5-min Rain = 0
KGO1 231431Z 21002KT 08/08 A3001 RMK A01 T00820082  RH  100%=      5-min Rain = 0
KGO1 231432Z 22003KT 08/08 A30 RMK A01 T00840084  RH  100%=      5-min Rain = 0
KGO1 231433Z 23004KT 09/09 A30 RMK A01 T00850085  RH  100%=      5-min Rain = 0
KGO1 231434Z 24004KT 09/09 A30 RMK A01 T00860086  RH  100%=      5-min Rain = 0
KGO1 231435Z 23004KT 09/09 A30 RMK A01 T00860085  RH  100%=      5-min Rain = 0
KGO1 231436Z 23004KT 08/08 A30 RMK A01 T00840083  RH  100%=      5-min Rain = 0
KGO1 231437Z 23004KT 08/08 A30 RMK A01 T00830083  RH  100%=      5-min Rain = 0
KGO1 231438Z 24004KT 08/08 A30 RMK A01 T00820082  RH  100%=      5-min Rain = 0
KGO1 231439Z 24004KT 08/08 A30 RMK A01 T00820082  RH  100%=      5-min Rain = 0
KGO1 231440Z 24005KT 08/08 A30 RMK A01 T00830083  RH  100%=      5-min Rain = 0
KGO1 231441Z 23005KT 08/08 A30 RMK A01 T00840084  RH  100%=      5-min Rain = 0
KGO1 231442Z 23004KT 09/09 A3001 RMK A01 T00850085  RH  100%=      5-min Rain = 0
KGO1 231443Z 23005KT 09/09 A3001 RMK A01 T00850085  RH  100%=      5-min Rain = 0
KGO1 231444Z 24005KT 08/08 A3001 RMK A01 T00840084  RH  100%=      5-min Rain = 0
KGO1 231445Z 23004KT 09/09 A30 RMK A01 T00850085  RH  100%=      5-min Rain = 0
KGO1 231446Z 23005KT 09/09 A3001 RMK A01 T00870087  RH  100%=      5-min Rain = 0
KGO1 231447Z 24007KT 09/09 A3001 RMK A01 T00880088  RH  100%=      5-min Rain = 0
KGO1 231448Z 24006KT 09/09 A3001 RMK A01 T00850085  RH  100%=      5-min Rain = 0
KGO1 231449Z 23006KT 08/08 A3001 RMK A01 T00830083  RH  100%=      5-min Rain = 0
KGO1 231450Z 23005KT 08/08 A3001 RMK A01 T00820082  RH  100%=      5-min Rain = 0
KGO1 231451Z 22006KT 08/08 A3001 RMK A01 T00810081  RH  100%=      5-min Rain = 0
KGO1 231452Z 22006KT 08/08 A3001 RMK A01 T00830083  RH  100%=      5-min Rain = 0
KGO1 231453Z 21004KT 09/09 A3001 RMK A01 T00850085  RH  100%=      5-min Rain = 0
KGO1 231454Z 22005KT 09/09 A3001 RMK A01 T00860086  RH  100%=      5-min Rain = 0
KGO1 231455Z 23006KT 09/09 A3001 RMK A01 T00890089  RH  100%=      5-min Rain = 0
KGO1 231456Z 23005KT 09/09 A3001 RMK A01 T00900090  RH  100%=      5-min Rain = 0
KGO1 231457Z 23006KT 09/09 A3001 RMK A01 T00880088  RH  100%=      5-min Rain = 0
KGO1 231458Z 23005KT 08/08 A3001 RMK A01 T00840084  RH  100%=      5-min Rain = 0
KGO1 231459Z 24006KT 08/08 A3001 RMK A01 T00840084  RH  100%=      5-min Rain = 0
KGO1 231500Z 23006KT 09/09 A3001 RMK A01 T00850085  RH  100%=      5-min Rain = 0
KGO1 231501Z 23007KT 08/08 A3001 RMK A01 T00840084  RH  100%=      5-min Rain = 0
KGO1 231502Z 23007KT 09/09 A3001 RMK A01 T00850085  RH  100%=      5-min Rain = 0
KGO1 231503Z 22006KT 09/09 A3001 RMK A01 T00850085  RH  100%=      5-min Rain = 0
KGO1 231504Z 22004KT 09/09 A3001 RMK A01 T00860086  RH  100%=      5-min Rain = 0
KGO1 231505Z 24006KT 09/09 A3001 RMK A01 T00850085  RH  100%=      5-min Rain = 0
KGO1 231506Z 25006KT 09/09 A3001 RMK A01 T00850085  RH  100%=      5-min Rain = 0
KGO1 231507Z 24005KT 08/08 A3001 RMK A01 T00840084  RH  100%=      5-min Rain = 0
KGO1 231508Z 23004KT 09/09 A3001 RMK A01 T00850085  RH  100%=      5-min Rain = 0
KGO1 231509Z 24006KT 09/09 A3001 RMK A01 T00870087  RH  100%=      5-min Rain = 0
KGO1 231510Z 24006KT 09/09 A3001 RMK A01 T00860086  RH  100%=      5-min Rain = 0
KGO1 231511Z 23005KT 09/09 A3001 RMK A01 T00850085  RH  100%=      5-min Rain = 0
KGO1 231512Z 24006KT 09/09 A3001 RMK A01 T00850085  RH  100%=      5-min Rain = 0
KGO1 231513Z 24007KT 09/09 A3001 RMK A01 T00850085  RH  100%=      5-min Rain = 0
KGO1 231514Z 24007KT 08/08 A3001 RMK A01 T00840084  RH  100%=      5-min Rain = 0
KGO1 231515Z 24007KT 08/08 A3001 RMK A01 T00840084  RH  100%=      5-min Rain = 0
KGO1 231516Z 25005KT 09/09 A3001 RMK A01 T00850085  RH  100%=      5-min Rain = 0
KGO1 231517Z 24004KT 09/09 A3001 RMK A01 T00860086  RH  100%=      5-min Rain = 0
KGO1 231518Z 25006KT 09/09 A3001 RMK A01 T00900090  RH  100%=      5-min Rain = 0
KGO1 231519Z 26006KT 09/09 A3001 RMK A01 T00910091  RH  100%=      5-min Rain = 0
KGO1 231520Z 25006KT 09/09 A3001 RMK A01 T00880088  RH  100%=      5-min Rain = 0
KGO1 231521Z 25005KT 09/09 A3001 RMK A01 T00890089  RH  100%=      5-min Rain = 0
KGO1 231522Z 27005KT 09/09 A3001 RMK A01 T00880088  RH  100%=      5-min Rain = 0
KGO1 231523Z 26005KT 09/09 A3001 RMK A01 T00880088  RH  100%=      5-min Rain = 0.01
KGO1 231524Z 27007KT 09/09 A3001 RMK A01 T00870087  RH  100%=      5-min Rain = 0
KGO1 231525Z 26008KT 09/09 A3001 RMK A01 T00870087  RH  100%=      5-min Rain = 0
KGO1 231526Z 26007KT 09/09 A3001 RMK A01 T00880088  RH  100%=      5-min Rain = 0
KGO1 231527Z 25007KT 09/09 A3001 RMK A01 T00900090  RH  100%=      5-min Rain = 0
KGO1 231528Z 25006KT 09/09 A3001 RMK A01 T00900090  RH  100%=      5-min Rain = 0
KGO1 231529Z 26006KT 09/09 A30 RMK A01 T00910091  RH  100%=      5-min Rain = 0
KGO1 231530Z 27007KT 09/09 A30 RMK A01 T00920092  RH  100%=      5-min Rain = 0
KGO1 231531Z 27006KT 09/09 A30 RMK A01 T00930092  RH  099%=      5-min Rain = 0
KGO1 231532Z 26007KT 09/09 A30 RMK A01 T00940091  RH  098%=      5-min Rain = 0
KGO1 231533Z 28007KT 10/09 A30 RMK A01 T00950090  RH  097%=      5-min Rain = 0
KGO1 231534Z 28007KT 10/09 A30 RMK A01 T00960090  RH  096%=      5-min Rain = 0
KGO1 231535Z 27006KT 10/09 A30 RMK A01 T00970090  RH  096%=      5-min Rain = 0
KGO1 231536Z 27008KT 10/09 A30 RMK A01 T00970089  RH  094%=      5-min Rain = 0
KGO1 231537Z 27008KT 10/09 A30 RMK A01 T00970085  RH  092%=      5-min Rain = 0
KGO1 231538Z 28007KT 10/08 A30 RMK A01 T00970083  RH  091%=      5-min Rain = 0
KGO1 231539Z 27007KT 10/08 A30 RMK A01 T00970083  RH  091%=      5-min Rain = 0
KGO1 231540Z 27007KT 10/09 A30 RMK A01 T00980085  RH  091%=      5-min Rain = 0
KGO1 231541Z 27009KT 10/09 A3001 RMK A01 T01000085  RH  091%=      5-min Rain = 0
KGO1 231542Z 29008KT 10/08 A3001 RMK A01 T01000083  RH  089%=      5-min Rain = 0
KGO1 231543Z 28007KT 10/08 A3001 RMK A01 T01000084  RH  090%=      5-min Rain = 0
KGO1 231544Z 29009KT 10/08 A3001 RMK A01 T01030084  RH  088%=      5-min Rain = 0
KGO1 231545Z 29008KT 10/08 A3001 RMK A01 T01030081  RH  087%=      5-min Rain = 0
KGO1 231546Z 29010KT 10/08 A3001 RMK A01 T01020077  RH  085%=      5-min Rain = 0
KGO1 231547Z 29010KT 10/07 A3001 RMK A01 T01020073  RH  082%=      5-min Rain = 0
KGO1 231548Z 28009KT 10/07 A3001 RMK A01 T01020072  RH  082%=      5-min Rain = 0
KGO1 231549Z 29008KT 10/08 A3001 RMK A01 T01030076  RH  083%=      5-min Rain = 0
KGO1 231550Z 29008KT 11/08 A3001 RMK A01 T01050075  RH  082%=      5-min Rain = 0
KGO1 231551Z 27009KT 11/08 A3001 RMK A01 T01070076  RH  081%=      5-min Rain = 0
KGO1 231552Z 28010KT 11/07 A3001 RMK A01 T01080072  RH  078%=      5-min Rain = 0
KGO1 231553Z 28008KT 11/07 A3001 RMK A01 T01090066  RH  075%=      5-min Rain = 0
KGO1 231554Z 28009KT 11/07 A3001 RMK A01 T01100068  RH  075%=      5-min Rain = 0
KGO1 231555Z 28010KT 11/06 A3001 RMK A01 T01090062  RH  073%=      5-min Rain = 0
KGO1 231556Z 28011KT 11/07 A3001 RMK A01 T01090067  RH  075%=      5-min Rain = 0
KGO1 231557Z 29009KT 11/06 A30 RMK A01 T01110064  RH  073%=      5-min Rain = 0
KGO1 231558Z 29009KT 11/07 A30 RMK A01 T01110069  RH  075%=      5-min Rain = 0
KGO1 231559Z 30009KT 11/07 A30 RMK A01 T01130066  RH  073%=      5-min Rain = 0
KGO1 231600Z 30008KT 11/07 A30 RMK A01 T01140067  RH  073%=      5-min Rain = 0
KGO1 231601Z 29008KT 12/06 A30 RMK A01 T01150061  RH  070%=      5-min Rain = 0
KGO1 231602Z 29009KT 11/07 A30 RMK A01 T01140067  RH  072%=      5-min Rain = 0
KGO1 231603Z 29010KT 12/07 A30 RMK A01 T01170067  RH  071%=      5-min Rain = 0
KGO1 231604Z 29008KT 12/06 A30 RMK A01 T01170061  RH  069%=      5-min Rain = 0
KGO1 231605Z 30010KT 12/06 A30 RMK A01 T01160061  RH  069%=      5-min Rain = 0
KGO1 231606Z 30009KT 12/06 A30 RMK A01 T01180061  RH  068%=      5-min Rain = 0
KGO1 231607Z 30008KT 12/06 A30 RMK A01 T01180061  RH  068%=      5-min Rain = 0
KGO1 231608Z 30010KT 12/06 A30 RMK A01 T01200063  RH  068%=      5-min Rain = 0
KGO1 231609Z 30009KT 12/06 A3001 RMK A01 T01200056  RH  065%=      5-min Rain = 0
KGO1 231610Z 29009KT 12/06 A30 RMK A01 T01200055  RH  064%=      5-min Rain = 0
KGO1 231611Z 31010KT 12/06 A30 RMK A01 T01200057  RH  065%=      5-min Rain = 0
KGO1 231612Z 32010KT 12/06 A3001 RMK A01 T01210061  RH  067%=      5-min Rain = 0
KGO1 231613Z 31010KT 12/06 A3001 RMK A01 T01210056  RH  064%=      5-min Rain = 0
KGO1 231614Z 32011KT 12/06 A3001 RMK A01 T01210057  RH  065%=      5-min Rain = 0
KGO1 231615Z 32011KT 12/06 A3001 RMK A01 T01200055  RH  064%=      5-min Rain = 0
KGO1 231616Z 31009KT 12/06 A3001 RMK A01 T01190056  RH  065%=      5-min Rain = 0
KGO1 231617Z 30008KT 12/06 A3001 RMK A01 T01190059  RH  067%=      5-min Rain = 0
KGO1 231618Z 31009KT 12/06 A3001 RMK A01 T01200062  RH  068%=      5-min Rain = 0
KGO1 231619Z 30010KT 12/06 A3001 RMK A01 T01220062  RH  067%=      5-min Rain = 0
KGO1 231620Z 31010KT 12/06 A3001 RMK A01 T01230063  RH  067%=      5-min Rain = 0
KGO1 231621Z 31010KT 12/06 A3001 RMK A01 T01230061  RH  066%=      5-min Rain = 0
KGO1 231622Z 31009KT 12/07 A3001 RMK A01 T01220065  RH  068%=      5-min Rain = 0
KGO1 231623Z 31009KT 12/06 A3001 RMK A01 T01240058  RH  064%=      5-min Rain = 0
KGO1 231624Z 31010KT 12/05 A3001 RMK A01 T01240054  RH  062%=      5-min Rain = 0
KGO1 231625Z 31010KT 12/05 A3001 RMK A01 T01240053  RH  062%=      5-min Rain = 0
KGO1 231626Z 32010KT 12/05 A3001 RMK A01 T01230049  RH  060%=      5-min Rain = 0
KGO1 231627Z 32012KT 12/05 A3001 RMK A01 T01230053  RH  062%=      5-min Rain = 0
KGO1 231628Z 31010KT 12/05 A3001 RMK A01 T01230050  RH  061%=      5-min Rain = 0
KGO1 231629Z 32009KT 12/05 A3001 RMK A01 T01240053  RH  062%=      5-min Rain = 0
KGO1 231630Z 32009KT 13/05 A3001 RMK A01 T01250053  RH  062%=      5-min Rain = 0
KGO1 231631Z 32008KT 13/06 A3001 RMK A01 T01250056  RH  063%=      5-min Rain = 0
KGO1 231632Z 30009KT 13/06 A3001 RMK A01 T01270059  RH  063%=      5-min Rain = 0
KGO1 231633Z 29008KT 13/06 A3001 RMK A01 T01280058  RH  063%=      5-min Rain = 0
KGO1 231634Z 31010KT 13/06 A3001 RMK A01 T01270058  RH  063%=      5-min Rain = 0
KGO1 231635Z 31007KT 13/06 A3001 RMK A01 T01290057  RH  062%=      5-min Rain = 0
KGO1 231636Z 32010KT 13/06 A3001 RMK A01 T01310058  RH  061%=      5-min Rain = 0
KGO1 231637Z 31010KT 13/05 A3001 RMK A01 T01310050  RH  058%=      5-min Rain = 0
KGO1 231638Z 29012KT 13/05 A3001 RMK A01 T01320053  RH  059%=      5-min Rain = 0
KGO1 231639Z 29010KT 13/05 A3001 RMK A01 T01320047  RH  056%=      5-min Rain = 0
KGO1 231640Z 30013KT 13/05 A3001 RMK A01 T01320049  RH  057%=      5-min Rain = 0
KGO1 231641Z 30011KT 13/05 A3001 RMK A01 T01310047  RH  057%=      5-min Rain = 0
KGO1 231642Z 30009KT 13/05 A3001 RMK A01 T01290048  RH  058%=      5-min Rain = 0
KGO1 231643Z 30010KT 13/05 A3001 RMK A01 T01300048  RH  058%=      5-min Rain = 0
KGO1 231644Z 28011KT 13/05 A3001 RMK A01 T01290051  RH  059%=      5-min Rain = 0
KGO1 231645Z 28012KT 13/05 A3001 RMK A01 T01300049  RH  058%=      5-min Rain = 0
KGO1 231646Z 29010KT 13/05 A3001 RMK A01 T01310050  RH  058%=      5-min Rain = 0
KGO1 231647Z 29011KT 13/05 A3001 RMK A01 T01310050  RH  058%=      5-min Rain = 0
KGO1 231648Z 29011KT 13/05 A3001 RMK A01 T01310048  RH  057%=      5-min Rain = 0
KGO1 231649Z 29011KT 13/05 A3001 RMK A01 T01300045  RH  056%=      5-min Rain = 0
KGO1 231650Z 29009KT 13/05 A3001 RMK A01 T01310051  RH  059%=      5-min Rain = 0
KGO1 231651Z 31012G17KT 13/05 A3001 RMK A01 T01340052  RH  058%=      5-min Rain = 0
KGO1 231652Z 30009KT 13/05 A3001 RMK A01 T01340054  RH  058%=      5-min Rain = 0
KGO1 231653Z 29009KT 13/05 A3001 RMK A01 T01340048  RH  056%=      5-min Rain = 0
KGO1 231654Z 29013KT 13/05 A3001 RMK A01 T01340046  RH  055%=      5-min Rain = 0
KGO1 231655Z 30011KT 13/04 A3001 RMK A01 T01330044  RH  055%=      5-min Rain = 0
KGO1 231656Z 28011KT 13/04 A3001 RMK A01 T01330042  RH  054%=      5-min Rain = 0
KGO1 231657Z 28010G15KT 13/05 A3001 RMK A01 T01330048  RH  057%=      5-min Rain = 0
KGO1 231658Z 29013KT 14/05 A3001 RMK A01 T01360049  RH  056%=      5-min Rain = 0
KGO1 231659Z 30010KT 14/05 A3001 RMK A01 T01360048  RH  055%=      5-min Rain = 0
KGO1 231700Z 29011G17KT 14/05 A3001 RMK A01 T01370046  RH  054%=      5-min Rain = 0
KGO1 231701Z 29011KT 14/05 A3001 RMK A01 T01370046  RH  054%=      5-min Rain = 0
KGO1 231702Z 28010KT 14/05 A3001 RMK A01 T01370045  RH  054%=      5-min Rain = 0
KGO1 231703Z 29011KT 14/04 A3001 RMK A01 T01350044  RH  054%=      5-min Rain = 0
KGO1 231704Z 29013KT 13/04 A3001 RMK A01 T01340044  RH  055%=      5-min Rain = 0
KGO1 231705Z 30014KT 13/04 A3001 RMK A01 T01340042  RH  054%=      5-min Rain = 0
KGO1 231706Z 29011KT 13/04 A3001 RMK A01 T01340041  RH  053%=      5-min Rain = 0
KGO1 231707Z 29008KT 13/05 A3001 RMK A01 T01340048  RH  056%=      5-min Rain = 0
KGO1 231708Z 28012KT 14/05 A3001 RMK A01 T01360045  RH  054%=      5-min Rain = 0
KGO1 231709Z 28011KT 14/05 A3001 RMK A01 T01350045  RH  055%=      5-min Rain = 0
KGO1 231710Z 29012KT 13/04 A3001 RMK A01 T01340042  RH  054%=      5-min Rain = 0
KGO1 231711Z 30013KT 13/04 A3001 RMK A01 T01340039  RH  053%=      5-min Rain = 0
KGO1 231712Z 29012KT 13/04 A3001 RMK A01 T01340041  RH  053%=      5-min Rain = 0
KGO1 231713Z 28012KT 13/04 A3001 RMK A01 T01340044  RH  054%=      5-min Rain = 0
KGO1 231714Z 29010KT 14/04 A3001 RMK A01 T01350044  RH  054%=      5-min Rain = 0
KGO1 231715Z 27009KT 14/04 A3001 RMK A01 T01350038  RH  052%=      5-min Rain = 0
KGO1 231716Z 28008KT 13/04 A30 RMK A01 T01340042  RH  054%=      5-min Rain = 0
KGO1 231717Z 31007KT 13/04 A3001 RMK A01 T01330043  RH  055%=      5-min Rain = 0
KGO1 231718Z 28009KT 13/04 A3001 RMK A01 T01340043  RH  054%=      5-min Rain = 0
KGO1 231719Z 28009KT 14/04 A3001 RMK A01 T01360043  RH  053%=      5-min Rain = 0
KGO1 231720Z 28009KT 14/04 A3001 RMK A01 T01380043  RH  053%=      5-min Rain = 0
KGO1 231721Z 28008KT 14/04 A3001 RMK A01 T01380044  RH  053%=      5-min Rain = 0
KGO1 231722Z 30010KT 14/04 A30 RMK A01 T01380041  RH  052%=      5-min Rain = 0
KGO1 231723Z 30009KT 14/04 A30 RMK A01 T01370040  RH  052%=      5-min Rain = 0
KGO1 231724Z 30009KT 14/04 A30 RMK A01 T01380044  RH  053%=      5-min Rain = 0
KGO1 231725Z 29008KT 14/05 A30 RMK A01 T01400052  RH  055%=      5-min Rain = 0
KGO1 231726Z 28008KT 14/04 A30 RMK A01 T01420039  RH  050%=      5-min Rain = 0
KGO1 231727Z 29007KT 14/05 A30 RMK A01 T01420046  RH  053%=      5-min Rain = 0
KGO1 231728Z 28007KT 14/05 A30 RMK A01 T01430045  RH  052%=      5-min Rain = 0
KGO1 231729Z 28008KT 14/05 A30 RMK A01 T01440048  RH  052%=      5-min Rain = 0
KGO1 231730Z 29009KT 14/04 A30 RMK A01 T01430039  RH  050%=      5-min Rain = 0
KGO1 231731Z 29009KT 14/04 A30 RMK A01 T01420043  RH  052%=      5-min Rain = 0
KGO1 231732Z 30009KT 14/04 A30 RMK A01 T01430044  RH  051%=      5-min Rain = 0
KGO1 231733Z 29008KT 14/04 A30 RMK A01 T01430044  RH  051%=      5-min Rain = 0
KGO1 231734Z 30010KT 15/05 A30 RMK A01 T01450046  RH  051%=      5-min Rain = 0
KGO1 231735Z 30009KT 15/04 A30 RMK A01 T01460038  RH  048%=      5-min Rain = 0
KGO1 231736Z 29006KT 15/04 A30 RMK A01 T01460040  RH  049%=      5-min Rain = 0
KGO1 231737Z 30008KT 15/05 A30 RMK A01 T01470046  RH  051%=      5-min Rain = 0
KGO1 231738Z 31007KT 15/05 A30 RMK A01 T01490048  RH  051%=      5-min Rain = 0
KGO1 231739Z 28008KT 15/04 A30 RMK A01 T01490041  RH  049%=      5-min Rain = 0
KGO1 231740Z 28007KT 15/03 A30 RMK A01 T01460033  RH  047%=      5-min Rain = 0
KGO1 231741Z 27008KT 14/04 A30 RMK A01 T01440037  RH  048%=      5-min Rain = 0
KGO1 231742Z 27007KT 15/04 A30 RMK A01 T01450042  RH  050%=      5-min Rain = 0
KGO1 231743Z 27006KT 15/04 A30 RMK A01 T01460042  RH  050%=      5-min Rain = 0
KGO1 231744Z 29007KT 15/04 A30 RMK A01 T01460043  RH  050%=      5-min Rain = 0
KGO1 231745Z 29008KT 15/04 A30 RMK A01 T01460042  RH  050%=      5-min Rain = 0
KGO1 231746Z 28008KT 15/04 A30 RMK A01 T01470039  RH  048%=      5-min Rain = 0
KGO1 231747Z 29009KT 15/04 A30 RMK A01 T01460036  RH  048%=      5-min Rain = 0
KGO1 231748Z 30006KT 15/05 A2999 RMK A01 T01470048  RH  052%=      5-min Rain = 0
KGO1 231749Z 30008KT 15/05 A2999 RMK A01 T01490045  RH  050%=      5-min Rain = 0
KGO1 231750Z 28008KT 15/04 A2999 RMK A01 T01480043  RH  049%=      5-min Rain = 0
KGO1 231751Z 26006KT 15/04 A2999 RMK A01 T01460042  RH  050%=      5-min Rain = 0
KGO1 231752Z 27006KT 15/05 A2999 RMK A01 T01460052  RH  053%=      5-min Rain = 0
KGO1 231753Z 30007KT 15/05 A2999 RMK A01 T01470045  RH  050%=      5-min Rain = 0
KGO1 231754Z 29007KT 15/03 A2999 RMK A01 T01460034  RH  047%=      5-min Rain = 0
KGO1 231755Z 28005KT 15/04 A2999 RMK A01 T01460036  RH  048%=      5-min Rain = 0
KGO1 231756Z 30009KT 15/04 A2999 RMK A01 T01470044  RH  050%=      5-min Rain = 0
KGO1 231757Z 31008KT 15/04 A2999 RMK A01 T01490037  RH  047%=      5-min Rain = 0
KGO1 231758Z 31007KT 15/04 A2999 RMK A01 T01490039  RH  048%=      5-min Rain = 0
KGO1 231759Z 28007KT 15/04 A2999 RMK A01 T01490037  RH  047%=      5-min Rain = 0
KGO1 231800Z 26006KT 15/04 A2999 RMK A01 T01490035  RH  046%=      5-min Rain = 0
KGO1 231801Z 30005KT 15/04 A2999 RMK A01 T01480037  RH  048%=      5-min Rain = 0
KGO1 231802Z 32005KT 15/04 A2999 RMK A01 T01480036  RH  047%=      5-min Rain = 0
KGO1 231803Z 31007KT 15/04 A2999 RMK A01 T01480044  RH  050%=      5-min Rain = 0
KGO1 231804Z 30006KT 15/04 A2999 RMK A01 T01500042  RH  048%=      5-min Rain = 0
KGO1 231805Z 30006KT 15/04 A2999 RMK A01 T01500035  RH  046%=      5-min Rain = 0
KGO1 231806Z 28006KT 15/04 A2999 RMK A01 T01490038  RH  047%=      5-min Rain = 0
KGO1 231807Z 25007KT 15/03 A2999 RMK A01 T01500033  RH  045%=      5-min Rain = 0
KGO1 231808Z 24006KT 15/03 A2999 RMK A01 T01500031  RH  045%=      5-min Rain = 0
KGO1 231809Z 26007KT 15/04 A2998 RMK A01 T01490035  RH  046%=      5-min Rain = 0
KGO1 231810Z 27008KT 15/04 A2998 RMK A01 T01510038  RH  047%=      5-min Rain = 0
KGO1 231811Z 27007KT 15/03 A2998 RMK A01 T01510033  RH  045%=      5-min Rain = 0
KGO1 231812Z 28008KT 15/04 A2998 RMK A01 T01520043  RH  048%=      5-min Rain = 0
KGO1 231813Z 28007KT 16/03 A2998 RMK A01 T01550033  RH  044%=      5-min Rain = 0
KGO1 231814Z 29006KT 15/03 A2998 RMK A01 T01530028  RH  043%=      5-min Rain = 0
KGO1 231815Z 29006KT 15/03 A2998 RMK A01 T01520030  RH  044%=      5-min Rain = 0
KGO1 231816Z 28008KT 15/04 A2998 RMK A01 T01520039  RH  047%=      5-min Rain = 0
KGO1 231817Z 28006KT 15/03 A2998 RMK A01 T01530030  RH  044%=      5-min Rain = 0
KGO1 231818Z 31006KT 15/04 A2998 RMK A01 T01530037  RH  046%=      5-min Rain = 0
KGO1 231819Z 29005KT 15/04 A2998 RMK A01 T01540035  RH  045%=      5-min Rain = 0
KGO1 231820Z 27004KT 16/03 A2998 RMK A01 T01550034  RH  044%=      5-min Rain = 0
KGO1 231821Z 26004KT 16/03 A2998 RMK A01 T01550034  RH  044%=      5-min Rain = 0
KGO1 231822Z 29008KT 16/04 A2998 RMK A01 T01560035  RH  044%=      5-min Rain = 0
KGO1 231823Z 30006KT 16/03 A2998 RMK A01 T01560025  RH  041%=      5-min Rain = 0
KGO1 231824Z 28005KT 16/02 A2998 RMK A01 T01560023  RH  041%=      5-min Rain = 0
KGO1 231825Z 27007KT 16/03 A2998 RMK A01 T01560033  RH  044%=      5-min Rain = 0
KGO1 231826Z 27006KT 16/03 A2998 RMK A01 T01570030  RH  042%=      5-min Rain = 0
KGO1 231827Z 27006KT 16/04 A2998 RMK A01 T01580036  RH  044%=      5-min Rain = 0
KGO1 231828Z 26006KT 16/04 A2998 RMK A01 T01570036  RH  044%=      5-min Rain = 0
KGO1 231829Z 27006KT 16/04 A2998 RMK A01 T01580041  RH  046%=      5-min Rain = 0
KGO1 231830Z 26006KT 16/04 A2998 RMK A01 T01590035  RH  043%=      5-min Rain = 0
KGO1 231831Z 25005KT 16/03 A2998 RMK A01 T01590034  RH  043%=      5-min Rain = 0
KGO1 231832Z 25004KT 16/03 A2998 RMK A01 T01570031  RH  043%=      5-min Rain = 0
KGO1 231833Z 26005KT 16/03 A2998 RMK A01 T01550029  RH  043%=      5-min Rain = 0
KGO1 231834Z 27008G14KT 16/04 A2998 RMK A01 T01550041  RH  046%=      5-min Rain = 0
KGO1 231835Z 27010KT 16/04 A2998 RMK A01 T01580041  RH  046%=      5-min Rain = 0
KGO1 231836Z 26010KT 16/04 A2998 RMK A01 T01590041  RH  045%=      5-min Rain = 0
KGO1 231837Z 27007KT 16/03 A2998 RMK A01 T01590027  RH  041%=      5-min Rain = 0
KGO1 231838Z 26007KT 16/05 A2998 RMK A01 T01590047  RH  047%=      5-min Rain = 0
KGO1 231839Z 28009KT 16/05 A2997 RMK A01 T01620045  RH  046%=      5-min Rain = 0
KGO1 231840Z 28008KT 16/04 A2997 RMK A01 T01620037  RH  043%=      5-min Rain = 0
KGO1 231841Z 26006KT 16/04 A2998 RMK A01 T01630037  RH  043%=      5-min Rain = 0
KGO1 231842Z 27005KT 16/03 A2998 RMK A01 T01610034  RH  043%=      5-min Rain = 0
KGO1 231843Z 27005KT 16/04 A2998 RMK A01 T01590035  RH  043%=      5-min Rain = 0
KGO1 231844Z 26003KT 16/04 A2998 RMK A01 T01590040  RH  045%=      5-min Rain = 0
KGO1 231845Z 26005KT 16/04 A2998 RMK A01 T01620042  RH  045%=      5-min Rain = 0
KGO1 231846Z 25008KT 16/04 A2998 RMK A01 T01620041  RH  045%=      5-min Rain = 0
KGO1 231847Z 25008KT 16/03 A2998 RMK A01 T01630030  RH  041%=      5-min Rain = 0
KGO1 231848Z 24008KT 16/03 A2998 RMK A01 T01630032  RH  041%=      5-min Rain = 0
KGO1 231849Z 23007KT 16/03 A2998 RMK A01 T01610029  RH  041%=      5-min Rain = 0
KGO1 231850Z 25013KT 16/04 A2998 RMK A01 T01610044  RH  046%=      5-min Rain = 0
KGO1 231851Z 25013KT 16/04 A2998 RMK A01 T01620039  RH  044%=      5-min Rain = 0
KGO1 231852Z 26012KT 16/03 A2998 RMK A01 T01630030  RH  041%=      5-min Rain = 0
KGO1 231853Z 25009KT 16/03 A2998 RMK A01 T01610030  RH  042%=      5-min Rain = 0
KGO1 231854Z 24008KT 16/03 A2998 RMK A01 T01600034  RH  043%=      5-min Rain = 0
KGO1 231855Z 25007KT 16/03 A2998 RMK A01 T01600031  RH  042%=      5-min Rain = 0
KGO1 231856Z 25008KT 16/04 A2998 RMK A01 T01580040  RH  045%=      5-min Rain = 0
KGO1 231857Z 24011KT 16/05 A2998 RMK A01 T01610045  RH  046%=      5-min Rain = 0
KGO1 231858Z 25013KT 16/05 A2998 RMK A01 T01640047  RH  046%=      5-min Rain = 0
KGO1 231859Z 25013KT 16/03 A2998 RMK A01 T01640032  RH  041%=      5-min Rain = 0
KGO1 231900Z 24013KT 16/04 A2998 RMK A01 T01610039  RH  044%=      5-min Rain = 0
KGO1 231901Z 24009KT 16/03 A2998 RMK A01 T01610033  RH  042%=      5-min Rain = 0
KGO1 231902Z 25009KT 16/04 A2998 RMK A01 T01600041  RH  045%=      5-min Rain = 0
KGO1 231903Z 26011G16KT 16/04 A2997 RMK A01 T01620042  RH  045%=      5-min Rain = 0
KGO1 231904Z 26013KT 16/04 A2997 RMK A01 T01630037  RH  043%=      5-min Rain = 0
KGO1 231905Z 25013KT 16/03 A2997 RMK A01 T01620033  RH  042%=      5-min Rain = 0
KGO1 231906Z 25010KT 16/03 A2997 RMK A01 T01600033  RH  043%=      5-min Rain = 0
KGO1 231907Z 26011KT 16/04 A2997 RMK A01 T01610040  RH  044%=      5-min Rain = 0
KGO1 231908Z 25010KT 16/04 A2997 RMK A01 T01640037  RH  043%=      5-min Rain = 0
KGO1 231909Z 25008KT 16/03 A2997 RMK A01 T01640032  RH  041%=      5-min Rain = 0
KGO1 231910Z 25009KT 17/03 A2997 RMK A01 T01650032  RH  041%=      5-min Rain = 0
KGO1 231911Z 25009KT 17/03 A2997 RMK A01 T01650027  RH  040%=      5-min Rain = 0
KGO1 231912Z 24010KT 17/04 A2997 RMK A01 T01650041  RH  044%=      5-min Rain = 0
KGO1 231913Z 24010KT 16/04 A2997 RMK A01 T01640036  RH  042%=      5-min Rain = 0
KGO1 231914Z 25011KT 16/04 A2997 RMK A01 T01630040  RH  044%=      5-min Rain = 0
KGO1 231915Z 25013KT 17/03 A2997 RMK A01 T01650031  RH  041%=      5-min Rain = 0
KGO1 231916Z 25011KT 17/03 A2997 RMK A01 T01660027  RH  039%=      5-min Rain = 0
KGO1 231917Z 23011KT 17/04 A2997 RMK A01 T01670035  RH  041%=      5-min Rain = 0
KGO1 231918Z 23009KT 17/02 A2997 RMK A01 T01660022  RH  038%=      5-min Rain = 0
KGO1 231919Z 24009KT 16/04 A2997 RMK A01 T01640037  RH  043%=      5-min Rain = 0
KGO1 231920Z 25009KT 17/04 A2997 RMK A01 T01660044  RH  044%=      5-min Rain = 0
KGO1 231921Z 25010KT 17/05 A2997 RMK A01 T01670045  RH  044%=      5-min Rain = 0
KGO1 231922Z 24006KT 17/03 A2997 RMK A01 T01680030  RH  040%=      5-min Rain = 0
KGO1 231923Z 27007KT 17/04 A2997 RMK A01 T01670035  RH  041%=      5-min Rain = 0
KGO1 231924Z 27009KT 17/03 A2997 RMK A01 T01680029  RH  039%=      5-min Rain = 0
KGO1 231925Z 23006KT 17/02 A2997 RMK A01 T01680021  RH  037%=      5-min Rain = 0
KGO1 231926Z 26006KT 17/02 A2997 RMK A01 T01650023  RH  038%=      5-min Rain = 0
KGO1 231927Z 27011KT 16/03 A2997 RMK A01 T01640033  RH  041%=      5-min Rain = 0
KGO1 231928Z 26011KT 17/03 A2997 RMK A01 T01660031  RH  040%=      5-min Rain = 0
KGO1 231929Z 25012KT 17/04 A2997 RMK A01 T01680035  RH  041%=      5-min Rain = 0
KGO1 231930Z 24012KT 17/03 A2997 RMK A01 T01670032  RH  040%=      5-min Rain = 0
KGO1 231931Z 25011KT 17/04 A2997 RMK A01 T01650036  RH  042%=      5-min Rain = 0
KGO1 231932Z 25012KT 17/06 A2997 RMK A01 T01690059  RH  048%=      5-min Rain = 0
KGO1 231933Z 25009KT 17/04 A2997 RMK A01 T01710039  RH  042%=      5-min Rain = 0
KGO1 231934Z 24010KT 17/05 A2997 RMK A01 T01700045  RH  044%=      5-min Rain = 0
KGO1 231935Z 24009KT 17/05 A2997 RMK A01 T01710049  RH  044%=      5-min Rain = 0
KGO1 231936Z 24006KT 17/04 A2997 RMK A01 T01720041  RH  042%=      5-min Rain = 0
KGO1 231937Z 22007KT 17/03 A2997 RMK A01 T01710026  RH  038%=      5-min Rain = 0
KGO1 231938Z 24007KT 17/02 A2997 RMK A01 T01690024  RH  038%=      5-min Rain = 0
KGO1 231939Z 27005KT 17/03 A2997 RMK A01 T01690034  RH  040%=      5-min Rain = 0
KGO1 231940Z 29009KT 17/04 A2997 RMK A01 T01730036  RH  040%=      5-min Rain = 0
KGO1 231941Z 27009KT 17/02 A2997 RMK A01 T01740022  RH  036%=      5-min Rain = 0
KGO1 231942Z 24008KT 17/05 A2997 RMK A01 T01740045  RH  043%=      5-min Rain = 0
KGO1 231943Z 25008KT 18/04 A2997 RMK A01 T01750043  RH  042%=      5-min Rain = 0
KGO1 231944Z 27009KT 17/04 A2997 RMK A01 T01740039  RH  041%=      5-min Rain = 0
KGO1 231945Z 27012KT 17/05 A2997 RMK A01 T01740046  RH  043%=      5-min Rain = 0
KGO1 231946Z 28013KT 18/04 A2997 RMK A01 T01760037  RH  040%=      5-min Rain = 0
KGO1 231947Z 26013KT 18/04 A2997 RMK A01 T01760039  RH  040%=      5-min Rain = 0
KGO1 231948Z 27011KT 17/04 A2997 RMK A01 T01740038  RH  040%=      5-min Rain = 0
KGO1 231949Z 27011KT 18/05 A2997 RMK A01 T01760046  RH  042%=      5-min Rain = 0
KGO1 231950Z 28010KT 18/03 A2997 RMK A01 T01760033  RH  038%=      5-min Rain = 0
KGO1 231951Z 28007KT 18/03 A2997 RMK A01 T01750030  RH  038%=      5-min Rain = 0
KGO1 231952Z 27008KT 18/03 A2997 RMK A01 T01750028  RH  037%=      5-min Rain = 0
KGO1 231953Z 28007KT 18/03 A2997 RMK A01 T01750031  RH  038%=      5-min Rain = 0
KGO1 231954Z 27007KT 17/03 A2997 RMK A01 T01740030  RH  038%=      5-min Rain = 0
KGO1 231955Z 25006KT 17/03 A2997 RMK A01 T01730030  RH  038%=      5-min Rain = 0
KGO1 231956Z 25004KT 17/04 A2997 RMK A01 T01740039  RH  041%=      5-min Rain = 0
KGO1 231957Z 28008KT 18/04 A2997 RMK A01 T01760040  RH  040%=      5-min Rain = 0
KGO1 231958Z 29008KT 18/04 A2997 RMK A01 T01780041  RH  040%=      5-min Rain = 0
KGO1 231959Z 28010KT 18/04 A2997 RMK A01 T01810036  RH  038%=      5-min Rain = 0
KGO1 232000Z 28013KT 18/04 A2997 RMK A01 T01810038  RH  039%=      5-min Rain = 0
KGO1 232001Z 28013KT 18/04 A2997 RMK A01 T01790041  RH  040%=      5-min Rain = 0
KGO1 232002Z 28011KT 18/03 A2997 RMK A01 T01780032  RH  038%=      5-min Rain = 0
KGO1 232003Z 26009KT 18/03 A2997 RMK A01 T01750028  RH  037%=      5-min Rain = 0
KGO1 232004Z 28010KT 18/04 A2997 RMK A01 T01750039  RH  040%=      5-min Rain = 0
KGO1 232005Z 28013KT 18/04 A2996 RMK A01 T01770036  RH  039%=      5-min Rain = 0
KGO1 232006Z 29009KT 18/03 A2997 RMK A01 T01760031  RH  038%=      5-min Rain = 0
KGO1 232007Z 29009KT 18/03 A2996 RMK A01 T01760029  RH  037%=      5-min Rain = 0
KGO1 232008Z 27009KT 18/04 A2996 RMK A01 T01760035  RH  039%=      5-min Rain = 0
KGO1 232009Z 26008KT 18/04 A2996 RMK A01 T01760035  RH  039%=      5-min Rain = 0
KGO1 232010Z 25006KT 18/03 A2996 RMK A01 T01750033  RH  039%=      5-min Rain = 0
KGO1 232011Z 30010KT 18/04 A2996 RMK A01 T01750035  RH  039%=      5-min Rain = 0
KGO1 232012Z 29009KT 18/03 A2996 RMK A01 T01760029  RH  037%=      5-min Rain = 0
KGO1 232013Z 29009KT 18/03 A2996 RMK A01 T01770032  RH  038%=      5-min Rain = 0
KGO1 232014Z 29011KT 18/04 A2996 RMK A01 T01780035  RH  039%=      5-min Rain = 0
KGO1 232015Z 28009KT 18/03 A2996 RMK A01 T01780027  RH  036%=      5-min Rain = 0
KGO1 232016Z 28010KT 18/04 A2996 RMK A01 T01790042  RH  040%=      5-min Rain = 0
KGO1 232017Z 28012KT 18/04 A2996 RMK A01 T01820035  RH  038%=      5-min Rain = 0
KGO1 232018Z 29012KT 18/04 A2996 RMK A01 T01810036  RH  038%=      5-min Rain = 0
KGO1 232019Z 28011KT 18/04 A2996 RMK A01 T01820041  RH  039%=      5-min Rain = 0
KGO1 232020Z 27013KT 18/04 A2996 RMK A01 T01840036  RH  038%=      5-min Rain = 0
KGO1 232021Z 27011KT 18/03 A2996 RMK A01 T01820033  RH  037%=      5-min Rain = 0
KGO1 232022Z 25013KT 18/04 A2996 RMK A01 T01800040  RH  039%=      5-min Rain = 0
KGO1 232023Z 25011KT 18/04 A2996 RMK A01 T01790036  RH  039%=      5-min Rain = 0
KGO1 232024Z 26008KT 18/02 A2996 RMK A01 T01770024  RH  036%=      5-min Rain = 0
KGO1 232025Z 27007KT 18/03 A2996 RMK A01 T01760031  RH  038%=      5-min Rain = 0
KGO1 232026Z 28008KT 18/03 A2996 RMK A01 T01770029  RH  037%=      5-min Rain = 0
KGO1 232027Z 27007KT 18/03 A2996 RMK A01 T01790026  RH  036%=      5-min Rain = 0
KGO1 232028Z 27007KT 18/03 A2996 RMK A01 T01800032  RH  037%=      5-min Rain = 0
KGO1 232029Z 28007KT 18/03 A2996 RMK A01 T01810029  RH  036%=      5-min Rain = 0
KGO1 232030Z 26008KT 18/04 A2996 RMK A01 T01830038  RH  038%=      5-min Rain = 0
KGO1 232031Z 27011KT 19/03 A2996 RMK A01 T01850033  RH  036%=      5-min Rain = 0
KGO1 232032Z 28010KT 18/02 A2996 RMK A01 T01820024  RH  035%=      5-min Rain = 0
KGO1 232033Z 28006KT 18/02 A2996 RMK A01 T01820023  RH  035%=      5-min Rain = 0
KGO1 232034Z 30006KT 18/02 A2996 RMK A01 T01820019  RH  033%=      5-min Rain = 0
KGO1 232035Z 29006KT 18/02 A2996 RMK A01 T01810019  RH  034%=      5-min Rain = 0
KGO1 232036Z 28008KT 18/02 A2996 RMK A01 T01810024  RH  035%=      5-min Rain = 0
KGO1 232037Z 28006KT 18/02 A2996 RMK A01 T01810022  RH  034%=      5-min Rain = 0
KGO1 232038Z 27007KT 18/02 A2996 RMK A01 T01810024  RH  035%=      5-min Rain = 0
KGO1 232039Z 26012KT 18/04 A2996 RMK A01 T01820037  RH  038%=      5-min Rain = 0
KGO1 232040Z 28009KT 18/03 A2996 RMK A01 T01820031  RH  036%=      5-min Rain = 0
KGO1 232041Z 29007KT 18/02 A2996 RMK A01 T01810021  RH  034%=      5-min Rain = 0
KGO1 232042Z 27006KT 18/03 A2996 RMK A01 T01810027  RH  036%=      5-min Rain = 0
KGO1 232043Z 28008G15KT 18/03 A2996 RMK A01 T01820030  RH  036%=      5-min Rain = 0
KGO1 232044Z 27014KT 18/04 A2996 RMK A01 T01830043  RH  040%=      5-min Rain = 0
KGO1 232045Z 27010KT 19/04 A2996 RMK A01 T01850037  RH  037%=      5-min Rain = 0
KGO1 232046Z 24011KT 18/04 A2996 RMK A01 T01830037  RH  038%=      5-min Rain = 0
KGO1 232047Z 26011KT 18/05 A2996 RMK A01 T01820047  RH  041%=      5-min Rain = 0
KGO1 232048Z 27012KT 18/03 A2996 RMK A01 T01830034  RH  037%=      5-min Rain = 0
KGO1 232049Z 26010KT 18/03 A2996 RMK A01 T01800027  RH  036%=      5-min Rain = 0
KGO1 232050Z 25008KT 18/03 A2996 RMK A01 T01790034  RH  038%=      5-min Rain = 0
KGO1 232051Z 27007KT 18/03 A2995 RMK A01 T01790029  RH  037%=      5-min Rain = 0
KGO1 232052Z 26008G13KT 18/03 A2995 RMK A01 T01800031  RH  037%=      5-min Rain = 0
KGO1 232053Z 27011KT 18/04 A2995 RMK A01 T01800036  RH  038%=      5-min Rain = 0
KGO1 232054Z 27013KT 18/05 A2995 RMK A01 T01810047  RH  041%=      5-min Rain = 0
KGO1 232055Z 26009KT 18/03 A2996 RMK A01 T01830033  RH  037%=      5-min Rain = 0
KGO1 232056Z 27006KT 18/03 A2996 RMK A01 T01800029  RH  037%=      5-min Rain = 0
KGO1 232057Z 28009KT 18/04 A2995 RMK A01 T01810037  RH  039%=      5-min Rain = 0
KGO1 232058Z 28008KT 18/03 A2995 RMK A01 T01830031  RH  036%=      5-min Rain = 0
KGO1 232059Z 27007KT 18/03 A2995 RMK A01 T01840030  RH  036%=      5-min Rain = 0
KGO1 232100Z 28004KT 18/03 A2995 RMK A01 T01830029  RH  036%=      5-min Rain = 0
KGO1 232101Z 29005G10KT 18/03 A2995 RMK A01 T01830028  RH  035%=      5-min Rain = 0
KGO1 232102Z 29007KT 18/03 A2995 RMK A01 T01840027  RH  035%=      5-min Rain = 0
KGO1 232103Z 30005KT 18/03 A2995 RMK A01 T01840027  RH  035%=      5-min Rain = 0
KGO1 232104Z 24008KT 18/04 A2995 RMK A01 T01840035  RH  037%=      5-min Rain = 0
KGO1 232105Z 25011KT 19/06 A2995 RMK A01 T01860056  RH  043%=      5-min Rain = 0
KGO1 232106Z 23012KT 19/06 A2995 RMK A01 T01880056  RH  042%=      5-min Rain = 0
KGO1 232107Z 23007KT 19/04 A2995 RMK A01 T01860037  RH  037%=      5-min Rain = 0
KGO1 232108Z 22008KT 18/04 A2995 RMK A01 T01840041  RH  039%=      5-min Rain = 0
KGO1 232109Z 24010KT 18/05 A2995 RMK A01 T01840050  RH  041%=      5-min Rain = 0
KGO1 232110Z 25012KT 19/04 A2995 RMK A01 T01850041  RH  039%=      5-min Rain = 0
KGO1 232111Z 24012KT 19/04 A2995 RMK A01 T01850040  RH  038%=      5-min Rain = 0
KGO1 232112Z 23013KT 19/04 A2995 RMK A01 T01850039  RH  038%=      5-min Rain = 0
KGO1 232113Z 22011KT 18/04 A2995 RMK A01 T01830039  RH  038%=      5-min Rain = 0
KGO1 232114Z 23010KT 18/04 A2995 RMK A01 T01830040  RH  039%=      5-min Rain = 0
KGO1 232115Z 25012KT 18/05 A2995 RMK A01 T01830048  RH  041%=      5-min Rain = 0
KGO1 232116Z 28010KT 18/04 A2995 RMK A01 T01840040  RH  038%=      5-min Rain = 0
KGO1 232117Z 28010KT 19/04 A2995 RMK A01 T01850037  RH  037%=      5-min Rain = 0
KGO1 232118Z 29010KT 19/03 A2995 RMK A01 T01870033  RH  036%=      5-min Rain = 0
KGO1 232119Z 29010KT 19/04 A2995 RMK A01 T01860035  RH  037%=      5-min Rain = 0
KGO1 232120Z 29012KT 19/04 A2995 RMK A01 T01880041  RH  038%=      5-min Rain = 0
KGO1 232121Z 27011KT 19/04 A2995 RMK A01 T01910038  RH  036%=      5-min Rain = 0
KGO1 232122Z 26011KT 19/03 A2995 RMK A01 T01900032  RH  035%=      5-min Rain = 0
KGO1 232123Z 27011G16KT 19/04 A2995 RMK A01 T01890040  RH  037%=      5-min Rain = 0
KGO1 232124Z 27008KT 19/03 A2995 RMK A01 T01880030  RH  035%=      5-min Rain = 0
KGO1 232125Z 27009KT 19/04 A2995 RMK A01 T01890040  RH  037%=      5-min Rain = 0
KGO1 232126Z 26012KT 19/04 A2995 RMK A01 T01900038  RH  036%=      5-min Rain = 0
KGO1 232127Z 27015KT 19/04 A2995 RMK A01 T01910036  RH  036%=      5-min Rain = 0
KGO1 232128Z 27010KT 19/03 A2995 RMK A01 T01890027  RH  034%=      5-min Rain = 0
KGO1 232129Z 27014KT 19/03 A2995 RMK A01 T01880026  RH  034%=      5-min Rain = 0
KGO1 232130Z 27015KT 19/03 A2995 RMK A01 T01870030  RH  035%=      5-min Rain = 0
KGO1 232131Z 26011KT 19/03 A2995 RMK A01 T01860033  RH  036%=      5-min Rain = 0
KGO1 232132Z 25011KT 19/04 A2995 RMK A01 T01880036  RH  037%=      5-min Rain = 0
KGO1 232133Z 27011KT 19/04 A2995 RMK A01 T01870035  RH  036%=      5-min Rain = 0
KGO1 232134Z 27012KT 19/03 A2995 RMK A01 T01870030  RH  035%=      5-min Rain = 0
KGO1 232135Z 27010KT 19/03 A2995 RMK A01 T01870029  RH  035%=      5-min Rain = 0
KGO1 232136Z 24008KT 19/03 A2995 RMK A01 T01870032  RH  036%=      5-min Rain = 0
KGO1 232137Z 24009KT 19/03 A2995 RMK A01 T01860030  RH  035%=      5-min Rain = 0
KGO1 232138Z 26011KT 19/03 A2995 RMK A01 T01860033  RH  036%=      5-min Rain = 0
KGO1 232139Z 24009KT 19/03 A2995 RMK A01 T01870034  RH  036%=      5-min Rain = 0
KGO1 232140Z 24010KT 19/05 A2995 RMK A01 T01870048  RH  040%=      5-min Rain = 0
KGO1 232141Z 26013KT 19/04 A2995 RMK A01 T01890040  RH  037%=      5-min Rain = 0
KGO1 232142Z 25009KT 19/04 A2995 RMK A01 T01880036  RH  036%=      5-min Rain = 0
KGO1 232143Z 26010KT 19/04 A2995 RMK A01 T01880039  RH  037%=      5-min Rain = 0
KGO1 232144Z 27010KT 19/03 A2995 RMK A01 T01880028  RH  034%=      5-min Rain = 0
KGO1 232145Z 26008KT 19/03 A2995 RMK A01 T01880029  RH  035%=      5-min Rain = 0
KGO1 232146Z 25006KT 19/02 A2995 RMK A01 T01880020  RH  032%=      5-min Rain = 0
KGO1 232147Z 26006KT 19/03 A2995 RMK A01 T01880027  RH  034%=      5-min Rain = 0
KGO1 232148Z 25007KT 19/02 A2995 RMK A01 T01890023  RH  033%=      5-min Rain = 0
KGO1 232149Z 25008KT 19/02 A2995 RMK A01 T01890023  RH  033%=      5-min Rain = 0
KGO1 232150Z 23010KT 19/05 A2995 RMK A01 T01880045  RH  039%=      5-min Rain = 0
KGO1 232151Z 23009KT 19/04 A2995 RMK A01 T01900038  RH  036%=      5-min Rain = 0
KGO1 232152Z 23008KT 19/03 A2994 RMK A01 T01900032  RH  035%=      5-min Rain = 0
KGO1 232153Z 24008KT 19/03 A2994 RMK A01 T01890032  RH  035%=      5-min Rain = 0
KGO1 232154Z 27008G14KT 19/03 A2995 RMK A01 T01890031  RH  035%=      5-min Rain = 0
KGO1 232155Z 29011KT 19/03 A2994 RMK A01 T01900025  RH  033%=      5-min Rain = 0
KGO1 232156Z 29010KT 19/02 A2994 RMK A01 T01920021  RH  032%=      5-min Rain = 0
KGO1 232157Z 28006KT 19/02 A2994 RMK A01 T01920023  RH  032%=      5-min Rain = 0
KGO1 232158Z 28006KT 19/02 A2994 RMK A01 T01920017  RH  031%=      5-min Rain = 0
KGO1 232159Z 27007KT 19/02 A2994 RMK A01 T01910019  RH  032%=      5-min Rain = 0
KGO1 232200Z 27009KT 19/02 A2994 RMK A01 T01910021  RH  032%=      5-min Rain = 0
KGO1 232201Z 27011KT 19/03 A2994 RMK A01 T01930034  RH  035%=      5-min Rain = 0
KGO1 232202Z 27012KT 19/03 A2994 RMK A01 T01940025  RH  033%=      5-min Rain = 0
KGO1 232203Z 27014KT 19/03 A2994 RMK A01 T01940026  RH  033%=      5-min Rain = 0
KGO1 232204Z 27012KT 19/02 A2994 RMK A01 T01920016  RH  031%=      5-min Rain = 0
KGO1 232205Z 28013KT 19/02 A2994 RMK A01 T01910024  RH  033%=      5-min Rain = 0
KGO1 232206Z 27012KT 19/02 A2994 RMK A01 T01910016  RH  031%=      5-min Rain = 0
KGO1 232207Z 26010KT 19/02 A2994 RMK A01 T01910020  RH  032%=      5-min Rain = 0
KGO1 232208Z 27010KT 19/02 A2994 RMK A01 T01910020  RH  032%=      5-min Rain = 0
KGO1 232209Z 26009KT 19/02 A2994 RMK A01 T01910022  RH  032%=      5-min Rain = 0
KGO1 232210Z 27008KT 19/02 A2994 RMK A01 T01920018  RH  031%=      5-min Rain = 0
KGO1 232211Z 27007KT 19/02 A2994 RMK A01 T01920020  RH  032%=      5-min Rain = 0
KGO1 232212Z 27010KT 19/02 A2994 RMK A01 T01930024  RH  033%=      5-min Rain = 0
KGO1 232213Z 28009KT 19/03 A2994 RMK A01 T01940031  RH  034%=      5-min Rain = 0
KGO1 232214Z 27010KT 20/04 A2994 RMK A01 T01960037  RH  035%=      5-min Rain = 0
KGO1 232215Z 27010KT 20/03 A2994 RMK A01 T01960026  RH  032%=      5-min Rain = 0
KGO1 232216Z 26011KT 19/03 A2994 RMK A01 T01940028  RH  033%=      5-min Rain = 0
KGO1 232217Z 27011KT 19/02 A2994 RMK A01 T01930023  RH  032%=      5-min Rain = 0
KGO1 232218Z 28008KT 19/02 A2994 RMK A01 T01910015  RH  031%=      5-min Rain = 0
KGO1 232219Z 25007KT 19/03 A2994 RMK A01 T01920030  RH  034%=      5-min Rain = 0
KGO1 232220Z 26008KT 19/03 A2994 RMK A01 T01940033  RH  034%=      5-min Rain = 0
KGO1 232221Z 28009KT 20/03 A2994 RMK A01 T01950030  RH  033%=      5-min Rain = 0
KGO1 232222Z 27009KT 20/02 A2994 RMK A01 T01950022  RH  032%=      5-min Rain = 0
KGO1 232223Z 27005KT 20/02 A2994 RMK A01 T01950023  RH  032%=      5-min Rain = 0
KGO1 232224Z 28009G14KT 20/03 A2994 RMK A01 T01950027  RH  033%=      5-min Rain = 0
KGO1 232225Z 27008KT 20/03 A2994 RMK A01 T01960029  RH  033%=      5-min Rain = 0
KGO1 232226Z 26010KT 20/04 A2994 RMK A01 T01980040  RH  035%=      5-min Rain = 0
KGO1 232227Z 26010KT 20/03 A2994 RMK A01 T01970030  RH  033%=      5-min Rain = 0
KGO1 232228Z 26009KT 20/03 A2994 RMK A01 T01950028  RH  033%=      5-min Rain = 0
KGO1 232229Z 26008KT 20/04 A2994 RMK A01 T01950039  RH  036%=      5-min Rain = 0
KGO1 232230Z 25008KT 20/03 A2994 RMK A01 T01950027  RH  033%=      5-min Rain = 0
KGO1 232231Z 26007KT 19/03 A2994 RMK A01 T01940028  RH  033%=      5-min Rain = 0
KGO1 232232Z 27009KT 19/03 A2994 RMK A01 T01940028  RH  033%=      5-min Rain = 0
KGO1 232233Z 28009KT 19/03 A2994 RMK A01 T01940026  RH  033%=      5-min Rain = 0
KGO1 232234Z 28008KT 19/02 A2994 RMK A01 T01940020  RH  031%=      5-min Rain = 0
KGO1 232235Z 28008KT 19/02 A2994 RMK A01 T01940019  RH  031%=      5-min Rain = 0
KGO1 232236Z 28006KT 19/02 A2994 RMK A01 T01930020  RH  032%=      5-min Rain = 0
KGO1 232237Z 28006KT 19/03 A2994 RMK A01 T01940029  RH  034%=      5-min Rain = 0
KGO1 232238Z 30008KT 20/03 A2994 RMK A01 T01960029  RH  033%=      5-min Rain = 0
KGO1 232239Z 29009KT 20/02 A2994 RMK A01 T01970016  RH  030%=      5-min Rain = 0
KGO1 232240Z 29008KT 20/02 A2994 RMK A01 T01960015  RH  030%=      5-min Rain = 0
KGO1 232241Z 29006KT 20/02 A2994 RMK A01 T01960015  RH  030%=      5-min Rain = 0
KGO1 232242Z 29006KT 20/02 A2994 RMK A01 T01960017  RH  030%=      5-min Rain = 0
KGO1 232243Z 27005KT 20/03 A2993 RMK A01 T01970030  RH  033%=      5-min Rain = 0
KGO1 232244Z 26005KT 20/03 A2993 RMK A01 T01990031  RH  033%=      5-min Rain = 0
KGO1 232245Z 28006KT 20/03 A2993 RMK A01 T01990034  RH  033%=      5-min Rain = 0
KGO1 232246Z 29009KT 20/02 A2993 RMK A01 T01990015  RH  029%=      5-min Rain = 0
KGO1 232247Z 28005KT 20/01 A2993 RMK A01 T01980008  RH  028%=      5-min Rain = 0
KGO1 232248Z 26006KT 20/02 A2993 RMK A01 T01960017  RH  030%=      5-min Rain = 0
KGO1 232249Z 26005KT 20/03 A2993 RMK A01 T01960025  RH  032%=      5-min Rain = 0
KGO1 232250Z 29005KT 20/02 A2993 RMK A01 T01960017  RH  030%=      5-min Rain = 0
KGO1 232251Z 30005KT 20/02 A2993 RMK A01 T01960019  RH  031%=      5-min Rain = 0
KGO1 232252Z 26005KT 20/02 A2993 RMK A01 T01970021  RH  031%=      5-min Rain = 0
KGO1 232253Z 26006KT 20/03 A2993 RMK A01 T01970026  RH  032%=      5-min Rain = 0
KGO1 232254Z 25006KT 20/03 A2993 RMK A01 T01970032  RH  033%=      5-min Rain = 0
KGO1 232255Z 24006KT 20/03 A2993 RMK A01 T01970028  RH  033%=      5-min Rain = 0
KGO1 232256Z 25006KT 20/03 A2993 RMK A01 T01960030  RH  033%=      5-min Rain = 0
KGO1 232257Z 23004KT 20/02 A2993 RMK A01 T01950021  RH  031%=      5-min Rain = 0
KGO1 232258Z 24005KT 19/02 A2993 RMK A01 T01940024  RH  032%=      5-min Rain = 0
KGO1 232259Z 26004KT 19/01 A2993 RMK A01 T01940014  RH  030%=      5-min Rain = 0
KGO1 232300Z 25004KT 19/02 A2993 RMK A01 T01940023  RH  032%=      5-min Rain = 0
KGO1 232301Z 30004KT 20/02 A2993 RMK A01 T01950022  RH  032%=      5-min Rain = 0
KGO1 232302Z 26004KT 20/03 A2993 RMK A01 T01960025  RH  032%=      5-min Rain = 0
KGO1 232303Z 29006KT 20/02 A2993 RMK A01 T01980022  RH  031%=      5-min Rain = 0
KGO1 232304Z 30005KT 20/02 A2993 RMK A01 T01980015  RH  029%=      5-min Rain = 0
KGO1 232305Z 30004KT 20/01 A2993 RMK A01 T01970008  RH  028%=      5-min Rain = 0
KGO1 232306Z 31005KT 20/01 A2993 RMK A01 T01960008  RH  028%=      5-min Rain = 0
KGO1 232307Z 31005KT 20/01 A2993 RMK A01 T01960009  RH  029%=      5-min Rain = 0
KGO1 232308Z 29005KT 19/01 A2993 RMK A01 T01940008  RH  029%=      5-min Rain = 0
KGO1 232309Z 29004KT 19/01 A2993 RMK A01 T01940010  RH  029%=      5-min Rain = 0
KGO1 232310Z 28003KT 19/01 A2993 RMK A01 T01940009  RH  029%=      5-min Rain = 0
KGO1 232311Z 28004KT 19/01 A2993 RMK A01 T01940010  RH  029%=      5-min Rain = 0
KGO1 232312Z 30006KT 19/02 A2993 RMK A01 T01940020  RH  031%=      5-min Rain = 0
KGO1 232313Z 28005KT 19/02 A2993 RMK A01 T01940020  RH  031%=      5-min Rain = 0
KGO1 232314Z 28007KT 19/03 A2993 RMK A01 T01940030  RH  034%=      5-min Rain = 0
KGO1 232315Z 27005KT 19/01 A2993 RMK A01 T01940011  RH  029%=      5-min Rain = 0
KGO1 232316Z 27004KT 19/02 A2993 RMK A01 T01940017  RH  031%=      5-min Rain = 0
KGO1 232317Z 28004KT 20/02 A2993 RMK A01 T01950019  RH  031%=      5-min Rain = 0
KGO1 232318Z 27004KT 20/01 A2993 RMK A01 T01960010  RH  029%=      5-min Rain = 0
KGO1 232319Z 27003KT 20/01 A2993 RMK A01 T01960011  RH  029%=      5-min Rain = 0
KGO1 232320Z 26003KT 20/01 A2993 RMK A01 T01950014  RH  030%=      5-min Rain = 0
KGO1 232321Z 26004KT 20/02 A2993 RMK A01 T01950021  RH  031%=      5-min Rain = 0
KGO1 232322Z 26003KT 20/01 A2993 RMK A01 T01950014  RH  030%=      5-min Rain = 0
KGO1 232323Z 25002KT 20/02 A2993 RMK A01 T01950021  RH  031%=      5-min Rain = 0
KGO1 232324Z 27003KT 20/02 A2993 RMK A01 T01950023  RH  032%=      5-min Rain = 0
KGO1 232325Z 26003KT 20/02 A2993 RMK A01 T01950023  RH  032%=      5-min Rain = 0
KGO1 232326Z 27002KT 20/02 A2993 RMK A01 T01960015  RH  030%=      5-min Rain = 0
KGO1 232327Z 31003KT 20/02 A2993 RMK A01 T01960015  RH  030%=      5-min Rain = 0
KGO1 232328Z 29003KT 20/02 A2993 RMK A01 T01970022  RH  031%=      5-min Rain = 0
KGO1 232329Z 27004KT 20/03 A2993 RMK A01 T01980026  RH  032%=      5-min Rain = 0
KGO1 232330Z 26006KT 20/03 A2993 RMK A01 T01980028  RH  032%=      5-min Rain = 0
KGO1 232331Z 27005KT 20/02 A2993 RMK A01 T01980024  RH  032%=      5-min Rain = 0
KGO1 232332Z 28005KT 20/02 A2993 RMK A01 T01960019  RH  031%=      5-min Rain = 0
KGO1 232333Z 27003KT 20/01 A2993 RMK A01 T01950013  RH  030%=      5-min Rain = 0
KGO1 232334Z 27003KT 20/02 A2993 RMK A01 T01950015  RH  030%=      5-min Rain = 0
KGO1 232335Z 27004KT 20/02 A2993 RMK A01 T01950020  RH  031%=      5-min Rain = 0
KGO1 232336Z 26003KT 20/02 A2993 RMK A01 T01950015  RH  030%=      5-min Rain = 0
KGO1 232337Z 29003KT 20/02 A2993 RMK A01 T01950015  RH  030%=      5-min Rain = 0
KGO1 232338Z 31004KT 20/01 A2993 RMK A01 T01950013  RH  030%=      5-min Rain = 0
KGO1 232339Z 30006KT 20/02 A2993 RMK A01 T01950020  RH  031%=      5-min Rain = 0
KGO1 232340Z 30004KT 20/02 A2993 RMK A01 T01960017  RH  030%=      5-min Rain = 0
KGO1 232341Z 31005KT 20/02 A2993 RMK A01 T01960015  RH  030%=      5-min Rain = 0
KGO1 232342Z 30006KT 20/02 A2993 RMK A01 T01950019  RH  031%=      5-min Rain = 0
KGO1 232343Z 32007KT 20/02 A2993 RMK A01 T01950023  RH  032%=      5-min Rain = 0
KGO1 232344Z 34007KT 19/02 A2993 RMK A01 T01940021  RH  032%=      5-min Rain = 0
KGO1 232345Z 34006KT 19/02 A2993 RMK A01 T01920023  RH  032%=      5-min Rain = 0
KGO1 232346Z 35006KT 19/03 A2993 RMK A01 T01900029  RH  034%=      5-min Rain = 0
KGO1 232347Z 35005KT 19/03 A2993 RMK A01 T01890026  RH  034%=      5-min Rain = 0
KGO1 232348Z 35005KT 19/02 A2993 RMK A01 T01890024  RH  033%=      5-min Rain = 0
KGO1 232349Z 35004KT 19/02 A2993 RMK A01 T01880021  RH  033%=      5-min Rain = 0
KGO1 232350Z 36004KT 19/02 A2993 RMK A01 T01870024  RH  034%=      5-min Rain = 0
KGO1 232351Z 00003KT 19/02 A2993 RMK A01 T01870017  RH  032%=      5-min Rain = 0
KGO1 232352Z 00003KT 19/01 A2993 RMK A01 T01870014  RH  031%=      5-min Rain = 0
KGO1 232353Z 00003KT 19/02 A2993 RMK A01 T01870021  RH  033%=      5-min Rain = 0
KGO1 232354Z 34002KT 19/03 A2993 RMK A01 T01860031  RH  036%=      5-min Rain = 0
KGO1 232355Z 33004KT 19/03 A2993 RMK A01 T01860029  RH  035%=      5-min Rain = 0
KGO1 232356Z 34004KT 19/02 A2993 RMK A01 T01850024  RH  034%=      5-min Rain = 0
KGO1 232357Z 35004KT 18/02 A2993 RMK A01 T01830024  RH  034%=      5-min Rain = 0
KGO1 232358Z 35003KT 18/02 A2993 RMK A01 T01820018  RH  033%=      5-min Rain = 0
KGO1 232359Z 36003KT 18/02 A2993 RMK A01 T01820020  RH  034%=      5-min Rain = 0
KGO1 240000Z 01003KT 18/02 A2993 RMK A01 T01820022  RH  034%=      5-min Rain = 0
KGO1 240001Z 36003KT 18/03 A2993 RMK A01 T01820031  RH  037%=      5-min Rain = 0
KGO1 240002Z 36002KT 18/03 A2993 RMK A01 T01810027  RH  036%=      5-min Rain = 0
KGO1 240003Z 01002KT 18/04 A2993 RMK A01 T01800036  RH  038%=      5-min Rain = 0
KGO1 240004Z 01002KT 18/03 A2992 RMK A01 T01790033  RH  038%=      5-min Rain = 0
KGO1 240005Z 02003KT 18/03 A2992 RMK A01 T01780029  RH  037%=      5-min Rain = 0
KGO1 240006Z 00004KT 18/03 A2992 RMK A01 T01780028  RH  037%=      5-min Rain = 0
KGO1 240007Z 00003KT 18/03 A2992 RMK A01 T01770028  RH  037%=      5-min Rain = 0
KGO1 240008Z 02003KT 18/03 A2992 RMK A01 T01770033  RH  038%=      5-min Rain = 0
KGO1 240009Z 01003KT 18/05 A2992 RMK A01 T01770046  RH  042%=      5-min Rain = 0
KGO1 240010Z 01003KT 18/05 A2992 RMK A01 T01750049  RH  043%=      5-min Rain = 0
KGO1 240011Z 01003KT 17/05 A2992 RMK A01 T01730050  RH  044%=      5-min Rain = 0
KGO1 240012Z 00003KT 17/05 A2992 RMK A01 T01720050  RH  044%=      5-min Rain = 0
KGO1 240013Z 01002KT 17/05 A2992 RMK A01 T01720051  RH  045%=      5-min Rain = 0
KGO1 240014Z 01003KT 17/05 A2992 RMK A01 T01710049  RH  044%=      5-min Rain = 0
KGO1 240015Z 02002KT 17/05 A2992 RMK A01 T01710048  RH  044%=      5-min Rain = 0
KGO1 240016Z 01003KT 17/05 A2992 RMK A01 T01710049  RH  044%=      5-min Rain = 0
KGO1 240017Z 02002KT 17/05 A2992 RMK A01 T01710047  RH  044%=      5-min Rain = 0
KGO1 240018Z 02003KT 17/05 A2992 RMK A01 T01710045  RH  043%=      5-min Rain = 0
KGO1 240019Z 02003KT 17/04 A2992 RMK A01 T01710040  RH  042%=      5-min Rain = 0
KGO1 240020Z 02003KT 17/03 A2992 RMK A01 T01720030  RH  039%=      5-min Rain = 0
KGO1 240021Z 02002KT 17/02 A2992 RMK A01 T01720024  RH  037%=      5-min Rain = 0
KGO1 240022Z 02002KT 17/03 A2992 RMK A01 T01730034  RH  039%=      5-min Rain = 0
KGO1 240023Z 03002KT 17/04 A2992 RMK A01 T01730042  RH  042%=      5-min Rain = 0
KGO1 240024Z 03002KT 17/04 A2992 RMK A01 T01730036  RH  040%=      5-min Rain = 0
KGO1 240025Z 03002KT 17/04 A2992 RMK A01 T01720037  RH  041%=      5-min Rain = 0
KGO1 240026Z 04002KT 17/04 A2992 RMK A01 T01710040  RH  042%=      5-min Rain = 0
KGO1 240027Z 04002KT 17/04 A2992 RMK A01 T01700040  RH  042%=      5-min Rain = 0
KGO1 240028Z 05003KT 17/04 A2992 RMK A01 T01690036  RH  041%=      5-min Rain = 0
KGO1 240029Z 05003KT 17/04 A2992 RMK A01 T01690039  RH  042%=      5-min Rain = 0
KGO1 240030Z 06003KT 17/04 A2992 RMK A01 T01680040  RH  043%=      5-min Rain = 0
KGO1 240031Z 06003KT 17/04 A2992 RMK A01 T01670040  RH  043%=      5-min Rain = 0
KGO1 240032Z 06003KT 17/04 A2992 RMK A01 T01670043  RH  044%=      5-min Rain = 0
KGO1 240033Z 06003KT 17/05 A2993 RMK A01 T01660047  RH  045%=      5-min Rain = 0
KGO1 240034Z 06003KT 17/04 A2993 RMK A01 T01660042  RH  044%=      5-min Rain = 0
KGO1 240035Z 06003KT 17/04 A2993 RMK A01 T01660037  RH  042%=      5-min Rain = 0
KGO1 240036Z 06003KT 17/03 A2993 RMK A01 T01660030  RH  040%=      5-min Rain = 0
KGO1 240037Z 06003KT 17/03 A2993 RMK A01 T01670026  RH  039%=      5-min Rain = 0
KGO1 240038Z 06004KT 17/03 A2993 RMK A01 T01680026  RH  038%=      5-min Rain = 0
KGO1 240039Z 06004KT 17/03 A2993 RMK A01 T01690030  RH  039%=      5-min Rain = 0
KGO1 240040Z 06003KT 17/03 A2993 RMK A01 T01680034  RH  041%=      5-min Rain = 0
KGO1 240041Z 06003KT 17/04 A2993 RMK A01 T01680035  RH  041%=      5-min Rain = 0
KGO1 240042Z 05003KT 17/04 A2993 RMK A01 T01680035  RH  041%=      5-min Rain = 0
KGO1 240043Z 05004KT 17/04 A2993 RMK A01 T01670035  RH  041%=      5-min Rain = 0
KGO1 240044Z 05004KT 17/04 A2993 RMK A01 T01670037  RH  042%=      5-min Rain = 0
KGO1 240045Z 05004KT 17/04 A2993 RMK A01 T01670039  RH  042%=      5-min Rain = 0
KGO1 240046Z 04004KT 17/05 A2993 RMK A01 T01670047  RH  045%=      5-min Rain = 0
KGO1 240047Z 04004KT 17/05 A2993 RMK A01 T01670047  RH  045%=      5-min Rain = 0
KGO1 240048Z 04004KT 17/04 A2993 RMK A01 T01660038  RH  042%=      5-min Rain = 0
KGO1 240049Z 04004KT 17/04 A2993 RMK A01 T01660036  RH  042%=      5-min Rain = 0
KGO1 240050Z 04004KT 17/04 A2993 RMK A01 T01660035  RH  042%=      5-min Rain = 0
KGO1 240051Z 04004KT 17/04 A2993 RMK A01 T01650037  RH  042%=      5-min Rain = 0
KGO1 240052Z 03004KT 16/04 A2993 RMK A01 T01640035  RH  042%=      5-min Rain = 0
KGO1 240053Z 03004KT 16/03 A2993 RMK A01 T01640033  RH  041%=      5-min Rain = 0
KGO1 240054Z 03004KT 16/03 A2993 RMK A01 T01640032  RH  041%=      5-min Rain = 0
KGO1 240055Z 03004KT 16/03 A2993 RMK A01 T01630032  RH  042%=      5-min Rain = 0
KGO1 240056Z 04004KT 16/03 A2993 RMK A01 T01620033  RH  042%=      5-min Rain = 0
KGO1 240057Z 03004KT 16/03 A2993 RMK A01 T01620033  RH  042%=      5-min Rain = 0
KGO1 240058Z 04004KT 16/04 A2993 RMK A01 T01610036  RH  043%=      5-min Rain = 0
KGO1 240059Z 04004KT 16/04 A2993 RMK A01 T01610036  RH  043%=      5-min Rain = 0
KGO1 240100Z 04004KT 16/03 A2993 RMK A01 T01610034  RH  043%=      5-min Rain = 0
KGO1 240101Z 04004KT 16/03 A2993 RMK A01 T01610033  RH  042%=      5-min Rain = 0
KGO1 240102Z 05004KT 16/03 A2993 RMK A01 T01620034  RH  042%=      5-min Rain = 0
KGO1 240103Z 05004KT 16/03 A2992 RMK A01 T01620034  RH  043%=      5-min Rain = 0
KGO1 240104Z 04004KT 16/04 A2992 RMK A01 T01610036  RH  043%=      5-min Rain = 0
KGO1 240105Z 05004KT 16/04 A2992 RMK A01 T01600035  RH  043%=      5-min Rain = 0
KGO1 240106Z 05004KT 16/04 A2992 RMK A01 T01590035  RH  043%=      5-min Rain = 0
KGO1 240107Z 05004KT 16/04 A2992 RMK A01 T01590037  RH  044%=      5-min Rain = 0
KGO1 240108Z 05004KT 16/04 A2993 RMK A01 T01580040  RH  045%=      5-min Rain = 0
KGO1 240109Z 05004KT 16/04 A2993 RMK A01 T01580041  RH  046%=      5-min Rain = 0
KGO1 240110Z 06004KT 16/04 A2993 RMK A01 T01580038  RH  045%=      5-min Rain = 0
KGO1 240111Z 06004KT 16/04 A2993 RMK A01 T01570038  RH  045%=      5-min Rain = 0
KGO1 240112Z 08003KT 16/04 A2993 RMK A01 T01570037  RH  045%=      5-min Rain = 0
KGO1 240113Z 08004KT 16/04 A2993 RMK A01 T01570036  RH  045%=      5-min Rain = 0
KGO1 240114Z 08005KT 16/04 A2993 RMK A01 T01560039  RH  045%=      5-min Rain = 0
KGO1 240115Z 08005KT 16/04 A2993 RMK A01 T01560037  RH  045%=      5-min Rain = 0
KGO1 240116Z 08005KT 16/04 A2993 RMK A01 T01560041  RH  046%=      5-min Rain = 0
KGO1 240117Z 08005KT 15/05 A2993 RMK A01 T01540045  RH  048%=      5-min Rain = 0
KGO1 240118Z 09005KT 15/05 A2993 RMK A01 T01520048  RH  050%=      5-min Rain = 0
KGO1 240119Z 09005KT 15/06 A2993 RMK A01 T01500055  RH  053%=      5-min Rain = 0
KGO1 240120Z 09005KT 15/07 A2993 RMK A01 T01480068  RH  059%=      5-min Rain = 0
KGO1 240121Z 09006KT 15/07 A2993 RMK A01 T01450068  RH  060%=      5-min Rain = 0
KGO1 240122Z 09005KT 14/07 A2993 RMK A01 T01440066  RH  060%=      5-min Rain = 0
KGO1 240123Z 09006KT 14/07 A2993 RMK A01 T01430067  RH  060%=      5-min Rain = 0
KGO1 240124Z 09006KT 14/06 A2993 RMK A01 T01430063  RH  058%=      5-min Rain = 0
KGO1 240125Z 09006KT 14/06 A2993 RMK A01 T01430062  RH  058%=      5-min Rain = 0
KGO1 240126Z 09006KT 14/06 A2993 RMK A01 T01430057  RH  056%=      5-min Rain = 0
KGO1 240127Z 09006KT 14/05 A2993 RMK A01 T01430051  RH  054%=      5-min Rain = 0
KGO1 240128Z 08005KT 14/05 A2993 RMK A01 T01440049  RH  053%=      5-min Rain = 0
KGO1 240129Z 08005KT 15/05 A2993 RMK A01 T01460048  RH  052%=      5-min Rain = 0
KGO1 240130Z 08006KT 15/05 A2993 RMK A01 T01470046  RH  050%=      5-min Rain = 0
KGO1 240131Z 08006KT 15/04 A2993 RMK A01 T01490043  RH  049%=      5-min Rain = 0
KGO1 240132Z 08005KT 15/04 A2994 RMK A01 T01500040  RH  048%=      5-min Rain = 0
KGO1 240133Z 08005KT 15/04 A2994 RMK A01 T01500041  RH  048%=      5-min Rain = 0
KGO1 240134Z 08005KT 15/04 A2994 RMK A01 T01500042  RH  048%=      5-min Rain = 0
KGO1 240135Z 08005KT 15/04 A2994 RMK A01 T01500038  RH  047%=      5-min Rain = 0
KGO1 240136Z 08006KT 15/03 A2994 RMK A01 T01500034  RH  046%=      5-min Rain = 0
KGO1 240137Z 08006KT 15/04 A2994 RMK A01 T01510036  RH  046%=      5-min Rain = 0
KGO1 240138Z 08006KT 15/04 A2994 RMK A01 T01500039  RH  047%=      5-min Rain = 0
KGO1 240139Z 09006KT 15/05 A2994 RMK A01 T01500046  RH  050%=      5-min Rain = 0
KGO1 240140Z 09006KT 15/05 A2994 RMK A01 T01470053  RH  053%=      5-min Rain = 0
KGO1 240141Z 09007KT 14/06 A2994 RMK A01 T01440055  RH  055%=      5-min Rain = 0
KGO1 240142Z 09006KT 14/05 A2994 RMK A01 T01420051  RH  054%=      5-min Rain = 0
KGO1 240143Z 09006KT 14/05 A2994 RMK A01 T01410050  RH  054%=      5-min Rain = 0
KGO1 240144Z 09006KT 14/05 A2994 RMK A01 T01410049  RH  054%=      5-min Rain = 0
KGO1 240145Z 09006KT 14/05 A2994 RMK A01 T01410048  RH  053%=      5-min Rain = 0
KGO1 240146Z 09006KT 14/05 A2994 RMK A01 T01410046  RH  053%=      5-min Rain = 0
KGO1 240147Z 09006KT 14/05 A2994 RMK A01 T01420046  RH  053%=      5-min Rain = 0
KGO1 240148Z 09006KT 14/05 A2994 RMK A01 T01420048  RH  053%=      5-min Rain = 0
KGO1 240149Z 09006KT 14/05 A2994 RMK A01 T01410049  RH  054%=      5-min Rain = 0
KGO1 240150Z 09006KT 14/05 A2994 RMK A01 T01400051  RH  055%=      5-min Rain = 0
KGO1 240151Z 09005KT 14/05 A2995 RMK A01 T01380054  RH  057%=      5-min Rain = 0
KGO1 240152Z 09005KT 14/06 A2995 RMK A01 T01370057  RH  059%=      5-min Rain = 0
KGO1 240153Z 08005KT 14/06 A2995 RMK A01 T01350059  RH  060%=      5-min Rain = 0
KGO1 240154Z 06005KT 13/06 A2995 RMK A01 T01340057  RH  060%=      5-min Rain = 0
KGO1 240155Z 07006KT 13/06 A2995 RMK A01 T01320055  RH  059%=      5-min Rain = 0
KGO1 240156Z 07006KT 13/05 A2995 RMK A01 T01320049  RH  057%=      5-min Rain = 0
KGO1 240157Z 07006KT 13/05 A2995 RMK A01 T01330046  RH  056%=      5-min Rain = 0
KGO1 240158Z 06006KT 14/05 A2995 RMK A01 T01350047  RH  055%=      5-min Rain = 0
KGO1 240159Z 06006KT 14/05 A2995 RMK A01 T01360047  RH  055%=      5-min Rain = 0
KGO1 240200Z 05005KT 14/05 A2995 RMK A01 T01350048  RH  056%=      5-min Rain = 0
KGO1 240201Z 03005KT 13/06 A2995 RMK A01 T01330056  RH  059%=      5-min Rain = 0
KGO1 240202Z 05005KT 13/06 A2995 RMK A01 T01300057  RH  061%=      5-min Rain = 0
KGO1 240203Z 05005KT 13/06 A2995 RMK A01 T01290056  RH  061%=      5-min Rain = 0
KGO1 240204Z 05005KT 13/05 A2995 RMK A01 T01280054  RH  061%=      5-min Rain = 0
KGO1 240205Z 04004KT 13/05 A2995 RMK A01 T01270052  RH  060%=      5-min Rain = 0
KGO1 240206Z 04004KT 13/05 A2996 RMK A01 T01270052  RH  060%=      5-min Rain = 0
KGO1 240207Z 04005KT 13/05 A2996 RMK A01 T01270051  RH  060%=      5-min Rain = 0
KGO1 240208Z 05004KT 13/05 A2996 RMK A01 T01260051  RH  060%=      5-min Rain = 0
KGO1 240209Z 04004KT 13/05 A2996 RMK A01 T01260051  RH  060%=      5-min Rain = 0
KGO1 240210Z 04004KT 13/05 A2996 RMK A01 T01270053  RH  061%=      5-min Rain = 0
KGO1 240211Z 04003KT 13/06 A2996 RMK A01 T01270059  RH  063%=      5-min Rain = 0
KGO1 240212Z 05004KT 13/06 A2996 RMK A01 T01270057  RH  063%=      5-min Rain = 0
KGO1 240213Z 05004KT 13/05 A2996 RMK A01 T01260054  RH  061%=      5-min Rain = 0
KGO1 240214Z 05004KT 13/05 A2996 RMK A01 T01260052  RH  061%=      5-min Rain = 0
KGO1 240215Z 06005KT 13/05 A2996 RMK A01 T01260050  RH  060%=      5-min Rain = 0
KGO1 240216Z 06005KT 13/05 A2996 RMK A01 T01270049  RH  059%=      5-min Rain = 0
KGO1 240217Z 06005KT 13/05 A2996 RMK A01 T01270049  RH  059%=      5-min Rain = 0
KGO1 240218Z 06005KT 13/05 A2996 RMK A01 T01260049  RH  059%=      5-min Rain = 0
KGO1 240219Z 06005KT 13/05 A2996 RMK A01 T01260047  RH  059%=      5-min Rain = 0
KGO1 240220Z 06005KT 13/05 A2996 RMK A01 T01260047  RH  059%=      5-min Rain = 0
KGO1 240221Z 07005KT 13/05 A2996 RMK A01 T01260047  RH  059%=      5-min Rain = 0
KGO1 240222Z 07005KT 13/05 A2996 RMK A01 T01270048  RH  059%=      5-min Rain = 0
KGO1 240223Z 07005KT 13/05 A2996 RMK A01 T01270048  RH  059%=      5-min Rain = 0
KGO1 240224Z 08004KT 13/05 A2996 RMK A01 T01270048  RH  059%=      5-min Rain = 0
KGO1 240225Z 08004KT 13/05 A2997 RMK A01 T01260048  RH  059%=      5-min Rain = 0
KGO1 240226Z 08005KT 13/05 A2997 RMK A01 T01260050  RH  060%=      5-min Rain = 0
KGO1 240227Z 08005KT 13/05 A2997 RMK A01 T01250054  RH  062%=      5-min Rain = 0
KGO1 240228Z 08005KT 12/06 A2997 RMK A01 T01240056  RH  063%=      5-min Rain = 0
KGO1 240229Z 08005KT 12/06 A2997 RMK A01 T01230055  RH  063%=      5-min Rain = 0
KGO1 240230Z 08005KT 12/06 A2997 RMK A01 T01220055  RH  064%=      5-min Rain = 0
KGO1 240231Z 08005KT 12/06 A2997 RMK A01 T01220055  RH  064%=      5-min Rain = 0
KGO1 240232Z 08005KT 12/05 A2997 RMK A01 T01210054  RH  063%=      5-min Rain = 0
KGO1 240233Z 08005KT 12/05 A2997 RMK A01 T01220054  RH  063%=      5-min Rain = 0
KGO1 240234Z 08005KT 12/05 A2997 RMK A01 T01220054  RH  063%=      5-min Rain = 0
KGO1 240235Z 09004KT 12/06 A2997 RMK A01 T01220055  RH  063%=      5-min Rain = 0
KGO1 240236Z 10004KT 12/06 A2997 RMK A01 T01230058  RH  065%=      5-min Rain = 0
KGO1 240237Z 10004KT 12/06 A2997 RMK A01 T01210060  RH  066%=      5-min Rain = 0
KGO1 240238Z 11005KT 12/06 A2997 RMK A01 T01200061  RH  068%=      5-min Rain = 0
KGO1 240239Z 11006KT 12/06 A2998 RMK A01 T01190061  RH  068%=      5-min Rain = 0
KGO1 240240Z 11006KT 12/06 A2998 RMK A01 T01180060  RH  068%=      5-min Rain = 0
KGO1 240241Z 11006KT 12/06 A2998 RMK A01 T01160059  RH  068%=      5-min Rain = 0
KGO1 240242Z 10006KT 12/06 A2998 RMK A01 T01150060  RH  069%=      5-min Rain = 0
KGO1 240243Z 10006KT 11/06 A2998 RMK A01 T01130060  RH  070%=      5-min Rain = 0
KGO1 240244Z 09006KT 11/06 A2998 RMK A01 T01120060  RH  070%=      5-min Rain = 0
KGO1 240245Z 09006KT 11/06 A2997 RMK A01 T01100058  RH  070%=      5-min Rain = 0
KGO1 240246Z 09006KT 11/06 A2997 RMK A01 T01110056  RH  069%=      5-min Rain = 0
KGO1 240247Z 08006KT 11/05 A2997 RMK A01 T01130053  RH  067%=      5-min Rain = 0
KGO1 240248Z 08005KT 11/05 A2997 RMK A01 T01140052  RH  066%=      5-min Rain = 0
KGO1 240249Z 08006KT 12/05 A2997 RMK A01 T01160053  RH  065%=      5-min Rain = 0
KGO1 240250Z 09006KT 12/05 A2997 RMK A01 T01180053  RH  065%=      5-min Rain = 0
KGO1 240251Z 09006KT 12/05 A2998 RMK A01 T01180053  RH  064%=      5-min Rain = 0
KGO1 240252Z 10006KT 12/06 A2998 RMK A01 T01180056  RH  065%=      5-min Rain = 0
KGO1 240253Z 10006KT 12/06 A2998 RMK A01 T01170057  RH  067%=      5-min Rain = 0
KGO1 240254Z 10006KT 12/06 A2998 RMK A01 T01160056  RH  067%=      5-min Rain = 0
KGO1 240255Z 10006KT 12/06 A2998 RMK A01 T01150056  RH  067%=      5-min Rain = 0
KGO1 240256Z 10006KT 11/06 A2998 RMK A01 T01140056  RH  068%=      5-min Rain = 0
KGO1 240257Z 10006KT 11/06 A2998 RMK A01 T01130057  RH  068%=      5-min Rain = 0
KGO1 240258Z 10007KT 11/06 A2998 RMK A01 T01120056  RH  069%=      5-min Rain = 0
KGO1 240259Z 10007KT 11/06 A2998 RMK A01 T01110057  RH  069%=      5-min Rain = 0
KGO1 240300Z 10007KT 11/06 A2998 RMK A01 T01110056  RH  069%=      5-min Rain = 0
KGO1 240301Z 11007KT 11/06 A2998 RMK A01 T01110056  RH  068%=      5-min Rain = 0
KGO1 240302Z 11007KT 11/06 A2998 RMK A01 T01110056  RH  069%=      5-min Rain = 0
KGO1 240303Z 11006KT 11/06 A2998 RMK A01 T01110057  RH  069%=      5-min Rain = 0
KGO1 240304Z 11007KT 11/06 A2998 RMK A01 T01110057  RH  070%=      5-min Rain = 0
KGO1 240305Z 11006KT 11/06 A2998 RMK A01 T01100058  RH  071%=      5-min Rain = 0
KGO1 240306Z 11006KT 11/06 A2998 RMK A01 T01090060  RH  072%=      5-min Rain = 0
KGO1 240307Z 11006KT 11/06 A2998 RMK A01 T01090062  RH  073%=      5-min Rain = 0
KGO1 240308Z 11006KT 11/06 A2998 RMK A01 T01080063  RH  074%=      5-min Rain = 0
KGO1 240309Z 11006KT 11/06 A2998 RMK A01 T01080063  RH  074%=      5-min Rain = 0
KGO1 240310Z 11006KT 11/06 A2998 RMK A01 T01080062  RH  073%=      5-min Rain = 0
KGO1 240311Z 11005KT 11/06 A2998 RMK A01 T01080060  RH  072%=      5-min Rain = 0
KGO1 240312Z 11005KT 11/06 A2998 RMK A01 T01080059  RH  071%=      5-min Rain = 0
KGO1 240313Z 11005KT 11/06 A2998 RMK A01 T01090057  RH  070%=      5-min Rain = 0
KGO1 240314Z 11004KT 11/06 A2998 RMK A01 T01090058  RH  071%=      5-min Rain = 0
KGO1 240315Z 11004KT 11/06 A2998 RMK A01 T01090058  RH  071%=      5-min Rain = 0
KGO1 240316Z 11004KT 11/06 A2998 RMK A01 T01090056  RH  070%=      5-min Rain = 0
KGO1 240317Z 11004KT 11/05 A2998 RMK A01 T01100054  RH  068%=      5-min Rain = 0
KGO1 240318Z 11005KT 11/05 A2998 RMK A01 T01110054  RH  068%=      5-min Rain = 0
KGO1 240319Z 10005KT 11/05 A2998 RMK A01 T01120052  RH  067%=      5-min Rain = 0
KGO1 240320Z 10005KT 11/05 A2998 RMK A01 T01130053  RH  066%=      5-min Rain = 0
KGO1 240321Z 10005KT 11/05 A2998 RMK A01 T01130053  RH  066%=      5-min Rain = 0
KGO1 240322Z 10005KT 11/05 A2998 RMK A01 T01130054  RH  067%=      5-min Rain = 0
KGO1 240323Z 10004KT 11/06 A2998 RMK A01 T01110055  RH  068%=      5-min Rain = 0
KGO1 240324Z 10004KT 11/06 A2998 RMK A01 T01100055  RH  069%=      5-min Rain = 0
KGO1 240325Z 11003KT 11/06 A2998 RMK A01 T01090057  RH  070%=      5-min Rain = 0
KGO1 240326Z 10003KT 11/06 A2998 RMK A01 T01080057  RH  071%=      5-min Rain = 0
KGO1 240327Z 10003KT 11/06 A2998 RMK A01 T01080055  RH  070%=      5-min Rain = 0
KGO1 240328Z 10003KT 11/05 A2998 RMK A01 T01080053  RH  069%=      5-min Rain = 0
KGO1 240329Z 10004KT 11/05 A2998 RMK A01 T01090053  RH  068%=      5-min Rain = 0
KGO1 240330Z 11003KT 11/05 A2998 RMK A01 T01090053  RH  068%=      5-min Rain = 0
KGO1 240331Z 12004KT 11/05 A2998 RMK A01 T01100052  RH  068%=      5-min Rain = 0
KGO1 240332Z 12003KT 11/05 A2998 RMK A01 T01110052  RH  067%=      5-min Rain = 0
KGO1 240333Z 12003KT 11/05 A2998 RMK A01 T01120051  RH  066%=      5-min Rain = 0
KGO1 240334Z 12003KT 11/05 A2998 RMK A01 T01130051  RH  065%=      5-min Rain = 0
KGO1 240335Z 11004KT 11/05 A2998 RMK A01 T01140051  RH  065%=      5-min Rain = 0
KGO1 240336Z 11004KT 11/05 A2998 RMK A01 T01140051  RH  065%=      5-min Rain = 0
KGO1 240337Z 11004KT 11/05 A2998 RMK A01 T01130051  RH  066%=      5-min Rain = 0
KGO1 240338Z 12005KT 11/05 A2998 RMK A01 T01130053  RH  067%=      5-min Rain = 0
KGO1 240339Z 13004KT 11/06 A2998 RMK A01 T01120057  RH  069%=      5-min Rain = 0
KGO1 240340Z 14003KT 11/06 A2998 RMK A01 T01100058  RH  070%=      5-min Rain = 0
KGO1 240341Z 13004KT 11/06 A2998 RMK A01 T01080056  RH  070%=      5-min Rain = 0
KGO1 240342Z 13004KT 11/05 A2998 RMK A01 T01080053  RH  069%=      5-min Rain = 0
KGO1 240343Z 13004KT 11/05 A2998 RMK A01 T01080051  RH  068%=      5-min Rain = 0
KGO1 240344Z 13005KT 11/05 A2998 RMK A01 T01090050  RH  067%=      5-min Rain = 0
KGO1 240345Z 13005KT 11/05 A2998 RMK A01 T01110050  RH  066%=      5-min Rain = 0
KGO1 240346Z 13005KT 11/05 A2998 RMK A01 T01110050  RH  066%=      5-min Rain = 0
KGO1 240347Z 13006KT 11/05 A2998 RMK A01 T01120050  RH  066%=      5-min Rain = 0
KGO1 240348Z 14006KT 11/05 A2998 RMK A01 T01110050  RH  066%=      5-min Rain = 0
KGO1 240349Z 14006KT 11/05 A2999 RMK A01 T01100051  RH  067%=      5-min Rain = 0
KGO1 240350Z 15005KT 11/05 A2999 RMK A01 T01100052  RH  068%=      5-min Rain = 0
KGO1 240351Z 15005KT 11/05 A2999 RMK A01 T01090053  RH  068%=      5-min Rain = 0
KGO1 240352Z 15004KT 11/06 A2999 RMK A01 T01080056  RH  070%=      5-min Rain = 0
KGO1 240353Z 16004KT 11/06 A2999 RMK A01 T01070057  RH  071%=      5-min Rain = 0
KGO1 240354Z 16004KT 11/06 A2999 RMK A01 T01060057  RH  072%=      5-min Rain = 0
KGO1 240355Z 15004KT 11/06 A2999 RMK A01 T01050057  RH  072%=      5-min Rain = 0
KGO1 240356Z 15004KT 11/06 A2999 RMK A01 T01050056  RH  071%=      5-min Rain = 0
KGO1 240357Z 14004KT 11/05 A2999 RMK A01 T01050053  RH  070%=      5-min Rain = 0
KGO1 240358Z 14004KT 11/05 A2999 RMK A01 T01060052  RH  070%=      5-min Rain = 0
KGO1 240359Z 14004KT 11/05 A2999 RMK A01 T01060051  RH  069%=      5-min Rain = 0
KGO1 240400Z 14004KT 11/05 A2999 RMK A01 T01060050  RH  068%=      5-min Rain = 0
KGO1 240401Z 13004KT 11/05 A2999 RMK A01 T01060049  RH  068%=      5-min Rain = 0
KGO1 240402Z 12004KT 11/05 A2999 RMK A01 T01060048  RH  067%=      5-min Rain = 0
KGO1 240403Z 12004KT 11/05 A2999 RMK A01 T01070049  RH  067%=      5-min Rain = 0
KGO1 240404Z 12003KT 11/05 A2999 RMK A01 T01070047  RH  066%=      5-min Rain = 0
KGO1 240405Z 11004KT 11/05 A2999 RMK A01 T01080046  RH  065%=      5-min Rain = 0
KGO1 240406Z 11004KT 11/05 A2999 RMK A01 T01090045  RH  065%=      5-min Rain = 0
KGO1 240407Z 11004KT 11/04 A2999 RMK A01 T01100044  RH  064%=      5-min Rain = 0
KGO1 240408Z 11003KT 11/04 A2999 RMK A01 T01110043  RH  063%=      5-min Rain = 0
KGO1 240409Z 11003KT 11/04 A2999 RMK A01 T01110043  RH  063%=      5-min Rain = 0
KGO1 240410Z 11003KT 11/04 A2999 RMK A01 T01110042  RH  062%=      5-min Rain = 0
KGO1 240411Z 11003KT 11/04 A2999 RMK A01 T01120042  RH  062%=      5-min Rain = 0
KGO1 240412Z 12002KT 11/04 A2999 RMK A01 T01120043  RH  062%=      5-min Rain = 0
KGO1 240413Z 14002KT 11/04 A2999 RMK A01 T01110043  RH  063%=      5-min Rain = 0
KGO1 240414Z 14002KT 11/04 A2999 RMK A01 T01110043  RH  063%=      5-min Rain = 0
KGO1 240415Z 15002KT 11/04 A2999 RMK A01 T01120043  RH  062%=      5-min Rain = 0
KGO1 240416Z 15001KT 11/04 A2999 RMK A01 T01120043  RH  062%=      5-min Rain = 0
KGO1 240417Z 16002KT 11/04 A2999 RMK A01 T01120043  RH  062%=      5-min Rain = 0
KGO1 240418Z 16002KT 11/04 A2999 RMK A01 T01120043  RH  062%=      5-min Rain = 0
KGO1 240419Z 15002KT 11/04 A2999 RMK A01 T01120043  RH  062%=      5-min Rain = 0
KGO1 240420Z 14002KT 11/04 A2999 RMK A01 T01120042  RH  062%=      5-min Rain = 0
KGO1 240421Z 14003KT 11/04 A2999 RMK A01 T01120043  RH  062%=      5-min Rain = 0
KGO1 240422Z 14003KT 11/04 A2999 RMK A01 T01120042  RH  062%=      5-min Rain = 0
KGO1 240423Z 14003KT 11/04 A2999 RMK A01 T01120041  RH  062%=      5-min Rain = 0
KGO1 240424Z 14003KT 11/04 A2999 RMK A01 T01120042  RH  062%=      5-min Rain = 0
KGO1 240425Z 13003KT 11/04 A2999 RMK A01 T01120042  RH  062%=      5-min Rain = 0
KGO1 240426Z 13003KT 11/04 A2999 RMK A01 T01120042  RH  062%=      5-min Rain = 0
KGO1 240427Z 14002KT 11/04 A2999 RMK A01 T01110043  RH  063%=      5-min Rain = 0
KGO1 240428Z 15002KT 11/04 A2999 RMK A01 T01110042  RH  063%=      5-min Rain = 0
KGO1 240429Z 16002KT 11/05 A2999 RMK A01 T01090045  RH  065%=      5-min Rain = 0
KGO1 240430Z 17001KT 11/05 A2999 RMK A01 T01070047  RH  066%=      5-min Rain = 0
KGO1 240431Z 17002KT 11/05 A2999 RMK A01 T01070046  RH  066%=      5-min Rain = 0
KGO1 240432Z 14002KT 11/05 A2999 RMK A01 T01060045  RH  066%=      5-min Rain = 0
KGO1 240433Z 12002KT 11/05 A2999 RMK A01 T01070045  RH  066%=      5-min Rain = 0
KGO1 240434Z 14002KT 11/05 A2999 RMK A01 T01070045  RH  066%=      5-min Rain = 0
KGO1 240435Z 14002KT 11/04 A2999 RMK A01 T01070044  RH  065%=      5-min Rain = 0
KGO1 240436Z 14002KT 11/04 A2999 RMK A01 T01070044  RH  065%=      5-min Rain = 0
KGO1 240437Z 14002KT 11/04 A2999 RMK A01 T01060042  RH  064%=      5-min Rain = 0
KGO1 240438Z 15002KT 11/04 A2999 RMK A01 T01060041  RH  064%=      5-min Rain = 0
KGO1 240439Z 18002KT 11/04 A2999 RMK A01 T01070041  RH  064%=      5-min Rain = 0
KGO1 240440Z 19003KT 11/04 A2999 RMK A01 T01070042  RH  064%=      5-min Rain = 0
KGO1 240441Z 19003KT 11/04 A2999 RMK A01 T01090042  RH  063%=      5-min Rain = 0
KGO1 240442Z 18004KT 11/04 A2999 RMK A01 T01100041  RH  062%=      5-min Rain = 0
KGO1 240443Z 18004KT 11/04 A2999 RMK A01 T01110041  RH  062%=      5-min Rain = 0
KGO1 240444Z 18003KT 11/04 A2999 RMK A01 T01110042  RH  062%=      5-min Rain = 0
KGO1 240445Z 17003KT 11/04 A2999 RMK A01 T01110042  RH  062%=      5-min Rain = 0
KGO1 240446Z 17004KT 11/04 A2999 RMK A01 T01110042  RH  063%=      5-min Rain = 0
KGO1 240447Z 18004KT 11/04 A2999 RMK A01 T01110042  RH  063%=      5-min Rain = 0
KGO1 240448Z 19004KT 11/04 A2999 RMK A01 T01120043  RH  062%=      5-min Rain = 0
KGO1 240449Z 19006KT 11/04 A2999 RMK A01 T01120044  RH  063%=      5-min Rain = 0
KGO1 240450Z 19006KT 11/05 A2999 RMK A01 T01110045  RH  064%=      5-min Rain = 0
KGO1 240451Z 19007KT 11/05 A2999 RMK A01 T01080047  RH  066%=      5-min Rain = 0
KGO1 240452Z 19006KT 10/05 A2999 RMK A01 T01030049  RH  069%=      5-min Rain = 0
KGO1 240453Z 19006KT 10/05 A2999 RMK A01 T00990051  RH  072%=      5-min Rain = 0
KGO1 240454Z 18006KT 10/05 A2999 RMK A01 T00970051  RH  073%=      5-min Rain = 0
KGO1 240455Z 17007KT 10/05 A2999 RMK A01 T00960051  RH  073%=      5-min Rain = 0
KGO1 240456Z 17007KT 10/05 A2999 RMK A01 T00960049  RH  072%=      5-min Rain = 0
KGO1 240457Z 17007KT 10/05 A2999 RMK A01 T00970049  RH  072%=      5-min Rain = 0
KGO1 240458Z 17006KT 10/05 A2999 RMK A01 T00980050  RH  072%=      5-min Rain = 0
KGO1 240459Z 17006KT 10/05 A2999 RMK A01 T00990050  RH  072%=      5-min Rain = 0

Page generated in 0.0707 seconds.